<?xml version="1.0" encoding="UTF-8" standalone="no" ?>
<gpx xmlns="http://www.topografix.com/GPX/1/1" xmlns:xsi="http://www.w3.org/2001/XMLSchema-instance" xsi:schemaLocation="http://www.topografix.com/GPX/1/1 http://www.topografix.com/GPX/1/1/gpx.xsd" version="1.1" creator="VisuGPX - https://www.visugpx.com">
  <metadata>
    <name>pr4 randonnees desaignes</name>
    <desc><![CDATA[pas de balisages aux muriers attention au chien a chazal clôture chez souberant]]></desc>
  </metadata>
  <trk>
    <name><![CDATA[Tracé 5 nov. 2015 08:47:29]]></name>
    <trkseg>
      <trkpt lat="44.99507" lon="4.51753">
        <ele>446</ele>
        <time>2015-11-05T07:47:29Z</time>
      </trkpt>
      <trkpt lat="44.99509" lon="4.51747">
        <ele>417</ele>
        <time>2015-11-05T07:48:49Z</time>
      </trkpt>
      <trkpt lat="44.99521" lon="4.51836">
        <ele>417</ele>
        <time>2015-11-05T07:48:53Z</time>
      </trkpt>
      <trkpt lat="44.996" lon="4.51924">
        <ele>416</ele>
        <time>2015-11-05T07:48:56Z</time>
      </trkpt>
      <trkpt lat="44.99667" lon="4.52044">
        <ele>416</ele>
        <time>2015-11-05T07:49:01Z</time>
      </trkpt>
      <trkpt lat="44.99576" lon="4.51865">
        <ele>416</ele>
        <time>2015-11-05T07:49:05Z</time>
      </trkpt>
      <trkpt lat="44.99573" lon="4.51873">
        <ele>414</ele>
        <time>2015-11-05T07:49:10Z</time>
      </trkpt>
      <trkpt lat="44.99567" lon="4.51881">
        <ele>412</ele>
        <time>2015-11-05T07:49:14Z</time>
      </trkpt>
      <trkpt lat="44.99558" lon="4.51888">
        <ele>411</ele>
        <time>2015-11-05T07:49:19Z</time>
      </trkpt>
      <trkpt lat="44.99552" lon="4.51892">
        <ele>410</ele>
        <time>2015-11-05T07:49:25Z</time>
      </trkpt>
      <trkpt lat="44.9954" lon="4.51899">
        <ele>408</ele>
        <time>2015-11-05T07:49:28Z</time>
      </trkpt>
      <trkpt lat="44.99534" lon="4.51906">
        <ele>407</ele>
        <time>2015-11-05T07:49:33Z</time>
      </trkpt>
      <trkpt lat="44.99527" lon="4.51911">
        <ele>406</ele>
        <time>2015-11-05T07:49:37Z</time>
      </trkpt>
      <trkpt lat="44.99518" lon="4.51908">
        <ele>404</ele>
        <time>2015-11-05T07:49:43Z</time>
      </trkpt>
      <trkpt lat="44.99502" lon="4.51893">
        <ele>402</ele>
        <time>2015-11-05T07:49:48Z</time>
      </trkpt>
      <trkpt lat="44.99489" lon="4.51875">
        <ele>400</ele>
        <time>2015-11-05T07:49:52Z</time>
      </trkpt>
      <trkpt lat="44.99473" lon="4.51872">
        <ele>399</ele>
        <time>2015-11-05T07:49:56Z</time>
      </trkpt>
      <trkpt lat="44.99463" lon="4.51867">
        <ele>398</ele>
        <time>2015-11-05T07:50:00Z</time>
      </trkpt>
      <trkpt lat="44.99456" lon="4.51855">
        <ele>397</ele>
        <time>2015-11-05T07:50:05Z</time>
      </trkpt>
      <trkpt lat="44.99447" lon="4.51845">
        <ele>396</ele>
        <time>2015-11-05T07:50:08Z</time>
      </trkpt>
      <trkpt lat="44.9944" lon="4.51837">
        <ele>395</ele>
        <time>2015-11-05T07:50:12Z</time>
      </trkpt>
      <trkpt lat="44.99434" lon="4.51837">
        <ele>394</ele>
        <time>2015-11-05T07:50:16Z</time>
      </trkpt>
      <trkpt lat="44.99425" lon="4.51841">
        <ele>391</ele>
        <time>2015-11-05T07:50:23Z</time>
      </trkpt>
      <trkpt lat="44.99418" lon="4.51847">
        <ele>393</ele>
        <time>2015-11-05T07:50:30Z</time>
      </trkpt>
      <trkpt lat="44.99418" lon="4.51864">
        <ele>392</ele>
        <time>2015-11-05T07:50:35Z</time>
      </trkpt>
      <trkpt lat="44.99416" lon="4.51878">
        <ele>391</ele>
        <time>2015-11-05T07:50:39Z</time>
      </trkpt>
      <trkpt lat="44.99397" lon="4.51916">
        <ele>391</ele>
        <time>2015-11-05T07:50:43Z</time>
      </trkpt>
      <trkpt lat="44.99397" lon="4.51932">
        <ele>394</ele>
        <time>2015-11-05T07:50:47Z</time>
      </trkpt>
      <trkpt lat="44.99393" lon="4.51949">
        <ele>393</ele>
        <time>2015-11-05T07:50:52Z</time>
      </trkpt>
      <trkpt lat="44.99384" lon="4.51956">
        <ele>393</ele>
        <time>2015-11-05T07:50:56Z</time>
      </trkpt>
      <trkpt lat="44.99371" lon="4.51952">
        <ele>392</ele>
        <time>2015-11-05T07:51:01Z</time>
      </trkpt>
      <trkpt lat="44.99364" lon="4.51939">
        <ele>392</ele>
        <time>2015-11-05T07:51:04Z</time>
      </trkpt>
      <trkpt lat="44.99345" lon="4.51897">
        <ele>392</ele>
        <time>2015-11-05T07:51:07Z</time>
      </trkpt>
      <trkpt lat="44.99318" lon="4.51866">
        <ele>392</ele>
        <time>2015-11-05T07:51:12Z</time>
      </trkpt>
      <trkpt lat="44.99317" lon="4.51872">
        <ele>392</ele>
        <time>2015-11-05T07:51:15Z</time>
      </trkpt>
      <trkpt lat="44.99316" lon="4.51884">
        <ele>392</ele>
        <time>2015-11-05T07:51:19Z</time>
      </trkpt>
      <trkpt lat="44.99317" lon="4.51896">
        <ele>393</ele>
        <time>2015-11-05T07:51:24Z</time>
      </trkpt>
      <trkpt lat="44.99317" lon="4.51907">
        <ele>393</ele>
        <time>2015-11-05T07:51:29Z</time>
      </trkpt>
      <trkpt lat="44.9932" lon="4.51925">
        <ele>393</ele>
        <time>2015-11-05T07:51:34Z</time>
      </trkpt>
      <trkpt lat="44.99328" lon="4.51935">
        <ele>393</ele>
        <time>2015-11-05T07:51:38Z</time>
      </trkpt>
      <trkpt lat="44.99334" lon="4.51946">
        <ele>393</ele>
        <time>2015-11-05T07:51:42Z</time>
      </trkpt>
      <trkpt lat="44.9934" lon="4.51957">
        <ele>394</ele>
        <time>2015-11-05T07:51:46Z</time>
      </trkpt>
      <trkpt lat="44.99346" lon="4.51966">
        <ele>394</ele>
        <time>2015-11-05T07:51:50Z</time>
      </trkpt>
      <trkpt lat="44.99351" lon="4.51983">
        <ele>393</ele>
        <time>2015-11-05T07:51:55Z</time>
      </trkpt>
      <trkpt lat="44.99355" lon="4.51994">
        <ele>393</ele>
        <time>2015-11-05T07:51:58Z</time>
      </trkpt>
      <trkpt lat="44.99357" lon="4.52009">
        <ele>394</ele>
        <time>2015-11-05T07:52:02Z</time>
      </trkpt>
      <trkpt lat="44.99363" lon="4.52016">
        <ele>394</ele>
        <time>2015-11-05T07:52:06Z</time>
      </trkpt>
      <trkpt lat="44.99371" lon="4.52026">
        <ele>394</ele>
        <time>2015-11-05T07:52:10Z</time>
      </trkpt>
      <trkpt lat="44.99374" lon="4.52037">
        <ele>394</ele>
        <time>2015-11-05T07:52:14Z</time>
      </trkpt>
      <trkpt lat="44.99379" lon="4.52024">
        <ele>393</ele>
        <time>2015-11-05T07:52:18Z</time>
      </trkpt>
      <trkpt lat="44.99396" lon="4.51986">
        <ele>392</ele>
        <time>2015-11-05T07:52:23Z</time>
      </trkpt>
      <trkpt lat="44.99399" lon="4.52003">
        <ele>391</ele>
        <time>2015-11-05T07:52:28Z</time>
      </trkpt>
      <trkpt lat="44.994" lon="4.52024">
        <ele>390</ele>
        <time>2015-11-05T07:52:32Z</time>
      </trkpt>
      <trkpt lat="44.99399" lon="4.52043">
        <ele>390</ele>
        <time>2015-11-05T07:52:35Z</time>
      </trkpt>
      <trkpt lat="44.99401" lon="4.52059">
        <ele>390</ele>
        <time>2015-11-05T07:52:38Z</time>
      </trkpt>
      <trkpt lat="44.994" lon="4.52074">
        <ele>390</ele>
        <time>2015-11-05T07:52:42Z</time>
      </trkpt>
      <trkpt lat="44.99399" lon="4.52092">
        <ele>389</ele>
        <time>2015-11-05T07:52:46Z</time>
      </trkpt>
      <trkpt lat="44.99397" lon="4.52104">
        <ele>388</ele>
        <time>2015-11-05T07:52:50Z</time>
      </trkpt>
      <trkpt lat="44.99397" lon="4.52119">
        <ele>388</ele>
        <time>2015-11-05T07:52:54Z</time>
      </trkpt>
      <trkpt lat="44.994" lon="4.52145">
        <ele>388</ele>
        <time>2015-11-05T07:52:59Z</time>
      </trkpt>
      <trkpt lat="44.994" lon="4.52172">
        <ele>389</ele>
        <time>2015-11-05T07:53:04Z</time>
      </trkpt>
      <trkpt lat="44.99399" lon="4.52182">
        <ele>389</ele>
        <time>2015-11-05T07:53:08Z</time>
      </trkpt>
      <trkpt lat="44.99399" lon="4.52204">
        <ele>388</ele>
        <time>2015-11-05T07:53:12Z</time>
      </trkpt>
      <trkpt lat="44.994" lon="4.52216">
        <ele>389</ele>
        <time>2015-11-05T07:53:15Z</time>
      </trkpt>
      <trkpt lat="44.99405" lon="4.52237">
        <ele>389</ele>
        <time>2015-11-05T07:53:19Z</time>
      </trkpt>
      <trkpt lat="44.99408" lon="4.5225">
        <ele>389</ele>
        <time>2015-11-05T07:53:22Z</time>
      </trkpt>
      <trkpt lat="44.9941" lon="4.52264">
        <ele>389</ele>
        <time>2015-11-05T07:53:26Z</time>
      </trkpt>
      <trkpt lat="44.99411" lon="4.52276">
        <ele>389</ele>
        <time>2015-11-05T07:53:30Z</time>
      </trkpt>
      <trkpt lat="44.99413" lon="4.5229">
        <ele>388</ele>
        <time>2015-11-05T07:53:34Z</time>
      </trkpt>
      <trkpt lat="44.99413" lon="4.52305">
        <ele>387</ele>
        <time>2015-11-05T07:53:38Z</time>
      </trkpt>
      <trkpt lat="44.99413" lon="4.52317">
        <ele>387</ele>
        <time>2015-11-05T07:53:42Z</time>
      </trkpt>
      <trkpt lat="44.99409" lon="4.52324">
        <ele>387</ele>
        <time>2015-11-05T07:53:46Z</time>
      </trkpt>
      <trkpt lat="44.99404" lon="4.52334">
        <ele>388</ele>
        <time>2015-11-05T07:53:50Z</time>
      </trkpt>
      <trkpt lat="44.99394" lon="4.52344">
        <ele>388</ele>
        <time>2015-11-05T07:53:55Z</time>
      </trkpt>
      <trkpt lat="44.99389" lon="4.52353">
        <ele>388</ele>
        <time>2015-11-05T07:54:01Z</time>
      </trkpt>
      <trkpt lat="44.99382" lon="4.52355">
        <ele>387</ele>
        <time>2015-11-05T07:54:10Z</time>
      </trkpt>
      <trkpt lat="44.99372" lon="4.52358">
        <ele>386</ele>
        <time>2015-11-05T07:54:15Z</time>
      </trkpt>
      <trkpt lat="44.99355" lon="4.52364">
        <ele>385</ele>
        <time>2015-11-05T07:54:20Z</time>
      </trkpt>
      <trkpt lat="44.9935" lon="4.52366">
        <ele>385</ele>
        <time>2015-11-05T07:54:22Z</time>
      </trkpt>
      <trkpt lat="44.99346" lon="4.52369">
        <ele>385</ele>
        <time>2015-11-05T07:54:27Z</time>
      </trkpt>
      <trkpt lat="44.99335" lon="4.52376">
        <ele>384</ele>
        <time>2015-11-05T07:54:31Z</time>
      </trkpt>
      <trkpt lat="44.9933" lon="4.52384">
        <ele>383</ele>
        <time>2015-11-05T07:54:38Z</time>
      </trkpt>
      <trkpt lat="44.99324" lon="4.52397">
        <ele>381</ele>
        <time>2015-11-05T07:54:40Z</time>
      </trkpt>
      <trkpt lat="44.99314" lon="4.52423">
        <ele>379</ele>
        <time>2015-11-05T07:54:50Z</time>
      </trkpt>
      <trkpt lat="44.99306" lon="4.52439">
        <ele>377</ele>
        <time>2015-11-05T07:54:55Z</time>
      </trkpt>
      <trkpt lat="44.99301" lon="4.52452">
        <ele>376</ele>
        <time>2015-11-05T07:54:59Z</time>
      </trkpt>
      <trkpt lat="44.99284" lon="4.52476">
        <ele>375</ele>
        <time>2015-11-05T07:55:04Z</time>
      </trkpt>
      <trkpt lat="44.99279" lon="4.52491">
        <ele>375</ele>
        <time>2015-11-05T07:55:08Z</time>
      </trkpt>
      <trkpt lat="44.99277" lon="4.52504">
        <ele>374</ele>
        <time>2015-11-05T07:55:12Z</time>
      </trkpt>
      <trkpt lat="44.99273" lon="4.52522">
        <ele>374</ele>
        <time>2015-11-05T07:55:17Z</time>
      </trkpt>
      <trkpt lat="44.9927" lon="4.52533">
        <ele>373</ele>
        <time>2015-11-05T07:55:22Z</time>
      </trkpt>
      <trkpt lat="44.99266" lon="4.52547">
        <ele>374</ele>
        <time>2015-11-05T07:55:26Z</time>
      </trkpt>
      <trkpt lat="44.99259" lon="4.52554">
        <ele>375</ele>
        <time>2015-11-05T07:55:31Z</time>
      </trkpt>
      <trkpt lat="44.99254" lon="4.52568">
        <ele>376</ele>
        <time>2015-11-05T07:55:36Z</time>
      </trkpt>
      <trkpt lat="44.99247" lon="4.52587">
        <ele>377</ele>
        <time>2015-11-05T07:55:40Z</time>
      </trkpt>
      <trkpt lat="44.99239" lon="4.52602">
        <ele>378</ele>
        <time>2015-11-05T07:55:44Z</time>
      </trkpt>
      <trkpt lat="44.99234" lon="4.52612">
        <ele>379</ele>
        <time>2015-11-05T07:55:48Z</time>
      </trkpt>
      <trkpt lat="44.9923" lon="4.52619">
        <ele>381</ele>
        <time>2015-11-05T07:55:52Z</time>
      </trkpt>
      <trkpt lat="44.99224" lon="4.52625">
        <ele>382</ele>
        <time>2015-11-05T07:55:56Z</time>
      </trkpt>
      <trkpt lat="44.99216" lon="4.52626">
        <ele>383</ele>
        <time>2015-11-05T07:56:01Z</time>
      </trkpt>
      <trkpt lat="44.99207" lon="4.5263">
        <ele>384</ele>
        <time>2015-11-05T07:56:05Z</time>
      </trkpt>
      <trkpt lat="44.99199" lon="4.52634">
        <ele>385</ele>
        <time>2015-11-05T07:56:09Z</time>
      </trkpt>
      <trkpt lat="44.99192" lon="4.52637">
        <ele>386</ele>
        <time>2015-11-05T07:56:13Z</time>
      </trkpt>
      <trkpt lat="44.99181" lon="4.52636">
        <ele>387</ele>
        <time>2015-11-05T07:56:18Z</time>
      </trkpt>
      <trkpt lat="44.99173" lon="4.52638">
        <ele>389</ele>
        <time>2015-11-05T07:56:24Z</time>
      </trkpt>
      <trkpt lat="44.99166" lon="4.52636">
        <ele>391</ele>
        <time>2015-11-05T07:56:33Z</time>
      </trkpt>
      <trkpt lat="44.99159" lon="4.52638">
        <ele>392</ele>
        <time>2015-11-05T07:56:38Z</time>
      </trkpt>
      <trkpt lat="44.99149" lon="4.52641">
        <ele>392</ele>
        <time>2015-11-05T07:56:43Z</time>
      </trkpt>
      <trkpt lat="44.99142" lon="4.52641">
        <ele>393</ele>
        <time>2015-11-05T07:56:46Z</time>
      </trkpt>
      <trkpt lat="44.99134" lon="4.52645">
        <ele>393</ele>
        <time>2015-11-05T07:56:50Z</time>
      </trkpt>
      <trkpt lat="44.99127" lon="4.52645">
        <ele>393</ele>
        <time>2015-11-05T07:56:54Z</time>
      </trkpt>
      <trkpt lat="44.99118" lon="4.52646">
        <ele>393</ele>
        <time>2015-11-05T07:57:00Z</time>
      </trkpt>
      <trkpt lat="44.99112" lon="4.52643">
        <ele>392</ele>
        <time>2015-11-05T07:57:04Z</time>
      </trkpt>
      <trkpt lat="44.99105" lon="4.52645">
        <ele>392</ele>
        <time>2015-11-05T07:57:17Z</time>
      </trkpt>
      <trkpt lat="44.99076" lon="4.52656">
        <ele>393</ele>
        <time>2015-11-05T07:57:20Z</time>
      </trkpt>
      <trkpt lat="44.99072" lon="4.5266">
        <ele>393</ele>
        <time>2015-11-05T07:57:22Z</time>
      </trkpt>
      <trkpt lat="44.99053" lon="4.52676">
        <ele>393</ele>
        <time>2015-11-05T07:57:34Z</time>
      </trkpt>
      <trkpt lat="44.99043" lon="4.52679">
        <ele>393</ele>
        <time>2015-11-05T07:57:38Z</time>
      </trkpt>
      <trkpt lat="44.99038" lon="4.52682">
        <ele>393</ele>
        <time>2015-11-05T07:57:40Z</time>
      </trkpt>
      <trkpt lat="44.99024" lon="4.52688">
        <ele>392</ele>
        <time>2015-11-05T07:57:46Z</time>
      </trkpt>
      <trkpt lat="44.99016" lon="4.5269">
        <ele>392</ele>
        <time>2015-11-05T07:57:50Z</time>
      </trkpt>
      <trkpt lat="44.99004" lon="4.52694">
        <ele>392</ele>
        <time>2015-11-05T07:57:54Z</time>
      </trkpt>
      <trkpt lat="44.9899" lon="4.52695">
        <ele>391</ele>
        <time>2015-11-05T07:57:59Z</time>
      </trkpt>
      <trkpt lat="44.98978" lon="4.52695">
        <ele>391</ele>
        <time>2015-11-05T07:58:04Z</time>
      </trkpt>
      <trkpt lat="44.98969" lon="4.52696">
        <ele>390</ele>
        <time>2015-11-05T07:58:08Z</time>
      </trkpt>
      <trkpt lat="44.98961" lon="4.52697">
        <ele>389</ele>
        <time>2015-11-05T07:58:16Z</time>
      </trkpt>
      <trkpt lat="44.98948" lon="4.52706">
        <ele>388</ele>
        <time>2015-11-05T07:58:19Z</time>
      </trkpt>
      <trkpt lat="44.98944" lon="4.52711">
        <ele>387</ele>
        <time>2015-11-05T07:58:28Z</time>
      </trkpt>
      <trkpt lat="44.9893" lon="4.52717">
        <ele>387</ele>
        <time>2015-11-05T07:58:28Z</time>
      </trkpt>
      <trkpt lat="44.98928" lon="4.52718">
        <ele>387</ele>
        <time>2015-11-05T07:58:34Z</time>
      </trkpt>
      <trkpt lat="44.98914" lon="4.52729">
        <ele>385</ele>
        <time>2015-11-05T07:58:37Z</time>
      </trkpt>
      <trkpt lat="44.98907" lon="4.52739">
        <ele>384</ele>
        <time>2015-11-05T07:58:42Z</time>
      </trkpt>
      <trkpt lat="44.98905" lon="4.52745">
        <ele>383</ele>
        <time>2015-11-05T07:58:43Z</time>
      </trkpt>
      <trkpt lat="44.98901" lon="4.5275">
        <ele>382</ele>
        <time>2015-11-05T07:58:48Z</time>
      </trkpt>
      <trkpt lat="44.98892" lon="4.52756">
        <ele>380</ele>
        <time>2015-11-05T07:58:50Z</time>
      </trkpt>
      <trkpt lat="44.98873" lon="4.52766">
        <ele>376</ele>
        <time>2015-11-05T07:59:00Z</time>
      </trkpt>
      <trkpt lat="44.98862" lon="4.52775">
        <ele>374</ele>
        <time>2015-11-05T07:59:05Z</time>
      </trkpt>
      <trkpt lat="44.98853" lon="4.52782">
        <ele>372</ele>
        <time>2015-11-05T07:59:10Z</time>
      </trkpt>
      <trkpt lat="44.98842" lon="4.52792">
        <ele>370</ele>
        <time>2015-11-05T07:59:15Z</time>
      </trkpt>
      <trkpt lat="44.98835" lon="4.52799">
        <ele>368</ele>
        <time>2015-11-05T07:59:19Z</time>
      </trkpt>
      <trkpt lat="44.98828" lon="4.52804">
        <ele>366</ele>
        <time>2015-11-05T07:59:23Z</time>
      </trkpt>
      <trkpt lat="44.98821" lon="4.52814">
        <ele>363</ele>
        <time>2015-11-05T07:59:28Z</time>
      </trkpt>
      <trkpt lat="44.98814" lon="4.52823">
        <ele>362</ele>
        <time>2015-11-05T07:59:32Z</time>
      </trkpt>
      <trkpt lat="44.98808" lon="4.52827">
        <ele>360</ele>
        <time>2015-11-05T07:59:35Z</time>
      </trkpt>
      <trkpt lat="44.98794" lon="4.5284">
        <ele>358</ele>
        <time>2015-11-05T07:59:40Z</time>
      </trkpt>
      <trkpt lat="44.98787" lon="4.52842">
        <ele>356</ele>
        <time>2015-11-05T07:59:45Z</time>
      </trkpt>
      <trkpt lat="44.9878" lon="4.52848">
        <ele>353</ele>
        <time>2015-11-05T07:59:50Z</time>
      </trkpt>
      <trkpt lat="44.98772" lon="4.52854">
        <ele>351</ele>
        <time>2015-11-05T07:59:55Z</time>
      </trkpt>
      <trkpt lat="44.98767" lon="4.52855">
        <ele>350</ele>
        <time>2015-11-05T07:59:58Z</time>
      </trkpt>
      <trkpt lat="44.98761" lon="4.52859">
        <ele>348</ele>
        <time>2015-11-05T08:00:02Z</time>
      </trkpt>
      <trkpt lat="44.98753" lon="4.52859">
        <ele>345</ele>
        <time>2015-11-05T08:00:08Z</time>
      </trkpt>
      <trkpt lat="44.98748" lon="4.52865">
        <ele>343</ele>
        <time>2015-11-05T08:00:12Z</time>
      </trkpt>
      <trkpt lat="44.98743" lon="4.52866">
        <ele>342</ele>
        <time>2015-11-05T08:00:17Z</time>
      </trkpt>
      <trkpt lat="44.98738" lon="4.52869">
        <ele>340</ele>
        <time>2015-11-05T08:00:18Z</time>
      </trkpt>
      <trkpt lat="44.98727" lon="4.52869">
        <ele>338</ele>
        <time>2015-11-05T08:00:28Z</time>
      </trkpt>
      <trkpt lat="44.98727" lon="4.52869">
        <ele>338</ele>
        <time>2015-11-05T08:00:30Z</time>
      </trkpt>
      <trkpt lat="44.98714" lon="4.52867">
        <ele>336</ele>
        <time>2015-11-05T08:00:35Z</time>
      </trkpt>
      <trkpt lat="44.98701" lon="4.52865">
        <ele>335</ele>
        <time>2015-11-05T08:00:39Z</time>
      </trkpt>
      <trkpt lat="44.98693" lon="4.52865">
        <ele>334</ele>
        <time>2015-11-05T08:00:46Z</time>
      </trkpt>
      <trkpt lat="44.98685" lon="4.52864">
        <ele>333</ele>
        <time>2015-11-05T08:00:50Z</time>
      </trkpt>
      <trkpt lat="44.9867" lon="4.52859">
        <ele>331</ele>
        <time>2015-11-05T08:01:00Z</time>
      </trkpt>
      <trkpt lat="44.98664" lon="4.52853">
        <ele>329</ele>
        <time>2015-11-05T08:01:05Z</time>
      </trkpt>
      <trkpt lat="44.98634" lon="4.52845">
        <ele>329</ele>
        <time>2015-11-05T08:01:08Z</time>
      </trkpt>
      <trkpt lat="44.98592" lon="4.52839">
        <ele>329</ele>
        <time>2015-11-05T08:01:12Z</time>
      </trkpt>
      <trkpt lat="44.98569" lon="4.52819">
        <ele>331</ele>
        <time>2015-11-05T08:01:17Z</time>
      </trkpt>
      <trkpt lat="44.9856" lon="4.5282">
        <ele>332</ele>
        <time>2015-11-05T08:01:21Z</time>
      </trkpt>
      <trkpt lat="44.98554" lon="4.52818">
        <ele>333</ele>
        <time>2015-11-05T08:01:29Z</time>
      </trkpt>
      <trkpt lat="44.98546" lon="4.52816">
        <ele>334</ele>
        <time>2015-11-05T08:01:33Z</time>
      </trkpt>
      <trkpt lat="44.98539" lon="4.52811">
        <ele>335</ele>
        <time>2015-11-05T08:01:39Z</time>
      </trkpt>
      <trkpt lat="44.98539" lon="4.528">
        <ele>336</ele>
        <time>2015-11-05T08:01:49Z</time>
      </trkpt>
      <trkpt lat="44.98533" lon="4.52794">
        <ele>336</ele>
        <time>2015-11-05T08:01:53Z</time>
      </trkpt>
      <trkpt lat="44.98528" lon="4.52792">
        <ele>335</ele>
        <time>2015-11-05T08:01:57Z</time>
      </trkpt>
      <trkpt lat="44.98521" lon="4.52788">
        <ele>335</ele>
        <time>2015-11-05T08:02:00Z</time>
      </trkpt>
      <trkpt lat="44.9851" lon="4.52785">
        <ele>335</ele>
        <time>2015-11-05T08:02:05Z</time>
      </trkpt>
      <trkpt lat="44.98504" lon="4.52783">
        <ele>335</ele>
        <time>2015-11-05T08:02:15Z</time>
      </trkpt>
      <trkpt lat="44.98495" lon="4.5278">
        <ele>335</ele>
        <time>2015-11-05T08:02:17Z</time>
      </trkpt>
      <trkpt lat="44.98487" lon="4.52784">
        <ele>335</ele>
        <time>2015-11-05T08:02:24Z</time>
      </trkpt>
      <trkpt lat="44.98477" lon="4.52786">
        <ele>334</ele>
        <time>2015-11-05T08:02:28Z</time>
      </trkpt>
      <trkpt lat="44.98471" lon="4.52791">
        <ele>334</ele>
        <time>2015-11-05T08:02:34Z</time>
      </trkpt>
      <trkpt lat="44.98464" lon="4.52791">
        <ele>333</ele>
        <time>2015-11-05T08:02:39Z</time>
      </trkpt>
      <trkpt lat="44.98456" lon="4.52791">
        <ele>332</ele>
        <time>2015-11-05T08:02:44Z</time>
      </trkpt>
      <trkpt lat="44.9845" lon="4.52794">
        <ele>332</ele>
        <time>2015-11-05T08:02:48Z</time>
      </trkpt>
      <trkpt lat="44.98441" lon="4.52796">
        <ele>332</ele>
        <time>2015-11-05T08:02:52Z</time>
      </trkpt>
      <trkpt lat="44.98434" lon="4.52798">
        <ele>331</ele>
        <time>2015-11-05T08:02:58Z</time>
      </trkpt>
      <trkpt lat="44.98429" lon="4.52803">
        <ele>330</ele>
        <time>2015-11-05T08:03:02Z</time>
      </trkpt>
      <trkpt lat="44.9842" lon="4.52808">
        <ele>330</ele>
        <time>2015-11-05T08:03:07Z</time>
      </trkpt>
      <trkpt lat="44.98411" lon="4.52807">
        <ele>329</ele>
        <time>2015-11-05T08:03:12Z</time>
      </trkpt>
      <trkpt lat="44.98403" lon="4.52806">
        <ele>329</ele>
        <time>2015-11-05T08:03:16Z</time>
      </trkpt>
      <trkpt lat="44.98398" lon="4.52804">
        <ele>329</ele>
        <time>2015-11-05T08:03:19Z</time>
      </trkpt>
      <trkpt lat="44.9839" lon="4.52802">
        <ele>328</ele>
        <time>2015-11-05T08:03:23Z</time>
      </trkpt>
      <trkpt lat="44.98382" lon="4.52799">
        <ele>328</ele>
        <time>2015-11-05T08:03:30Z</time>
      </trkpt>
      <trkpt lat="44.98379" lon="4.52794">
        <ele>327</ele>
        <time>2015-11-05T08:03:34Z</time>
      </trkpt>
      <trkpt lat="44.98344" lon="4.52822">
        <ele>327</ele>
        <time>2015-11-05T08:03:38Z</time>
      </trkpt>
      <trkpt lat="44.98308" lon="4.52858">
        <ele>327</ele>
        <time>2015-11-05T08:03:43Z</time>
      </trkpt>
      <trkpt lat="44.98306" lon="4.52844">
        <ele>328</ele>
        <time>2015-11-05T08:03:48Z</time>
      </trkpt>
      <trkpt lat="44.98313" lon="4.52834">
        <ele>328</ele>
        <time>2015-11-05T08:03:52Z</time>
      </trkpt>
      <trkpt lat="44.98312" lon="4.52823">
        <ele>330</ele>
        <time>2015-11-05T08:04:02Z</time>
      </trkpt>
      <trkpt lat="44.98325" lon="4.52811">
        <ele>330</ele>
        <time>2015-11-05T08:04:07Z</time>
      </trkpt>
      <trkpt lat="44.98331" lon="4.52804">
        <ele>331</ele>
        <time>2015-11-05T08:04:11Z</time>
      </trkpt>
      <trkpt lat="44.98333" lon="4.52792">
        <ele>332</ele>
        <time>2015-11-05T08:04:16Z</time>
      </trkpt>
      <trkpt lat="44.98338" lon="4.52785">
        <ele>332</ele>
        <time>2015-11-05T08:04:26Z</time>
      </trkpt>
      <trkpt lat="44.98341" lon="4.52774">
        <ele>333</ele>
        <time>2015-11-05T08:04:31Z</time>
      </trkpt>
      <trkpt lat="44.98342" lon="4.52763">
        <ele>333</ele>
        <time>2015-11-05T08:04:36Z</time>
      </trkpt>
      <trkpt lat="44.9834" lon="4.52752">
        <ele>333</ele>
        <time>2015-11-05T08:04:44Z</time>
      </trkpt>
      <trkpt lat="44.98342" lon="4.52741">
        <ele>333</ele>
        <time>2015-11-05T08:04:51Z</time>
      </trkpt>
      <trkpt lat="44.98347" lon="4.52734">
        <ele>333</ele>
        <time>2015-11-05T08:04:55Z</time>
      </trkpt>
      <trkpt lat="44.98352" lon="4.52725">
        <ele>335</ele>
        <time>2015-11-05T08:05:02Z</time>
      </trkpt>
      <trkpt lat="44.98356" lon="4.52719">
        <ele>335</ele>
        <time>2015-11-05T08:05:11Z</time>
      </trkpt>
      <trkpt lat="44.98361" lon="4.52716">
        <ele>336</ele>
        <time>2015-11-05T08:05:14Z</time>
      </trkpt>
      <trkpt lat="44.9837" lon="4.5272">
        <ele>335</ele>
        <time>2015-11-05T08:05:18Z</time>
      </trkpt>
      <trkpt lat="44.98379" lon="4.52722">
        <ele>335</ele>
        <time>2015-11-05T08:05:22Z</time>
      </trkpt>
      <trkpt lat="44.98387" lon="4.52723">
        <ele>335</ele>
        <time>2015-11-05T08:05:27Z</time>
      </trkpt>
      <trkpt lat="44.98394" lon="4.52727">
        <ele>335</ele>
        <time>2015-11-05T08:05:32Z</time>
      </trkpt>
      <trkpt lat="44.98398" lon="4.52737">
        <ele>335</ele>
        <time>2015-11-05T08:05:36Z</time>
      </trkpt>
      <trkpt lat="44.98406" lon="4.52741">
        <ele>334</ele>
        <time>2015-11-05T08:05:41Z</time>
      </trkpt>
      <trkpt lat="44.98413" lon="4.52746">
        <ele>333</ele>
        <time>2015-11-05T08:05:46Z</time>
      </trkpt>
      <trkpt lat="44.9842" lon="4.52758">
        <ele>333</ele>
        <time>2015-11-05T08:05:50Z</time>
      </trkpt>
      <trkpt lat="44.98428" lon="4.52764">
        <ele>333</ele>
        <time>2015-11-05T08:05:54Z</time>
      </trkpt>
      <trkpt lat="44.98436" lon="4.52766">
        <ele>332</ele>
        <time>2015-11-05T08:05:58Z</time>
      </trkpt>
      <trkpt lat="44.98445" lon="4.52767">
        <ele>332</ele>
        <time>2015-11-05T08:06:02Z</time>
      </trkpt>
      <trkpt lat="44.98451" lon="4.52771">
        <ele>331</ele>
        <time>2015-11-05T08:06:07Z</time>
      </trkpt>
      <trkpt lat="44.98463" lon="4.5269">
        <ele>333</ele>
        <time>2015-11-05T08:06:10Z</time>
      </trkpt>
      <trkpt lat="44.98472" lon="4.52673">
        <ele>334</ele>
        <time>2015-11-05T08:06:14Z</time>
      </trkpt>
      <trkpt lat="44.98481" lon="4.52662">
        <ele>335</ele>
        <time>2015-11-05T08:06:18Z</time>
      </trkpt>
      <trkpt lat="44.98488" lon="4.52664">
        <ele>335</ele>
        <time>2015-11-05T08:06:26Z</time>
      </trkpt>
      <trkpt lat="44.98495" lon="4.52666">
        <ele>335</ele>
        <time>2015-11-05T08:06:33Z</time>
      </trkpt>
      <trkpt lat="44.98502" lon="4.52668">
        <ele>336</ele>
        <time>2015-11-05T08:06:37Z</time>
      </trkpt>
      <trkpt lat="44.98507" lon="4.52669">
        <ele>336</ele>
        <time>2015-11-05T08:06:41Z</time>
      </trkpt>
      <trkpt lat="44.98516" lon="4.52668">
        <ele>337</ele>
        <time>2015-11-05T08:06:46Z</time>
      </trkpt>
      <trkpt lat="44.98525" lon="4.52665">
        <ele>338</ele>
        <time>2015-11-05T08:06:53Z</time>
      </trkpt>
      <trkpt lat="44.98532" lon="4.52659">
        <ele>340</ele>
        <time>2015-11-05T08:07:04Z</time>
      </trkpt>
      <trkpt lat="44.98539" lon="4.5265">
        <ele>341</ele>
        <time>2015-11-05T08:07:22Z</time>
      </trkpt>
      <trkpt lat="44.98547" lon="4.52652">
        <ele>341</ele>
        <time>2015-11-05T08:07:29Z</time>
      </trkpt>
      <trkpt lat="44.98556" lon="4.52654">
        <ele>342</ele>
        <time>2015-11-05T08:07:34Z</time>
      </trkpt>
      <trkpt lat="44.98566" lon="4.52655">
        <ele>342</ele>
        <time>2015-11-05T08:07:38Z</time>
      </trkpt>
      <trkpt lat="44.98572" lon="4.52658">
        <ele>342</ele>
        <time>2015-11-05T08:07:45Z</time>
      </trkpt>
      <trkpt lat="44.9858" lon="4.52661">
        <ele>342</ele>
        <time>2015-11-05T08:07:52Z</time>
      </trkpt>
      <trkpt lat="44.98586" lon="4.52658">
        <ele>342</ele>
        <time>2015-11-05T08:07:56Z</time>
      </trkpt>
      <trkpt lat="44.98594" lon="4.52655">
        <ele>343</ele>
        <time>2015-11-05T08:08:00Z</time>
      </trkpt>
      <trkpt lat="44.98601" lon="4.5265">
        <ele>346</ele>
        <time>2015-11-05T08:08:08Z</time>
      </trkpt>
      <trkpt lat="44.98607" lon="4.52646">
        <ele>347</ele>
        <time>2015-11-05T08:08:14Z</time>
      </trkpt>
      <trkpt lat="44.98613" lon="4.52642">
        <ele>348</ele>
        <time>2015-11-05T08:08:20Z</time>
      </trkpt>
      <trkpt lat="44.98621" lon="4.52637">
        <ele>352</ele>
        <time>2015-11-05T08:08:28Z</time>
      </trkpt>
      <trkpt lat="44.98627" lon="4.52634">
        <ele>353</ele>
        <time>2015-11-05T08:08:34Z</time>
      </trkpt>
      <trkpt lat="44.98634" lon="4.52627">
        <ele>356</ele>
        <time>2015-11-05T08:08:42Z</time>
      </trkpt>
      <trkpt lat="44.9864" lon="4.52619">
        <ele>357</ele>
        <time>2015-11-05T08:08:50Z</time>
      </trkpt>
      <trkpt lat="44.98646" lon="4.52612">
        <ele>357</ele>
        <time>2015-11-05T08:08:55Z</time>
      </trkpt>
      <trkpt lat="44.98653" lon="4.52604">
        <ele>357</ele>
        <time>2015-11-05T08:08:59Z</time>
      </trkpt>
      <trkpt lat="44.9866" lon="4.52597">
        <ele>357</ele>
        <time>2015-11-05T08:09:03Z</time>
      </trkpt>
      <trkpt lat="44.98666" lon="4.52588">
        <ele>357</ele>
        <time>2015-11-05T08:09:08Z</time>
      </trkpt>
      <trkpt lat="44.98672" lon="4.5258">
        <ele>356</ele>
        <time>2015-11-05T08:09:12Z</time>
      </trkpt>
      <trkpt lat="44.98677" lon="4.52569">
        <ele>356</ele>
        <time>2015-11-05T08:09:16Z</time>
      </trkpt>
      <trkpt lat="44.9868" lon="4.52556">
        <ele>356</ele>
        <time>2015-11-05T08:09:20Z</time>
      </trkpt>
      <trkpt lat="44.98683" lon="4.52545">
        <ele>356</ele>
        <time>2015-11-05T08:09:24Z</time>
      </trkpt>
      <trkpt lat="44.98683" lon="4.52532">
        <ele>355</ele>
        <time>2015-11-05T08:09:28Z</time>
      </trkpt>
      <trkpt lat="44.98683" lon="4.52524">
        <ele>355</ele>
        <time>2015-11-05T08:09:31Z</time>
      </trkpt>
      <trkpt lat="44.98681" lon="4.52515">
        <ele>355</ele>
        <time>2015-11-05T08:09:34Z</time>
      </trkpt>
      <trkpt lat="44.98681" lon="4.52508">
        <ele>355</ele>
        <time>2015-11-05T08:09:38Z</time>
      </trkpt>
      <trkpt lat="44.98675" lon="4.52489">
        <ele>355</ele>
        <time>2015-11-05T08:09:47Z</time>
      </trkpt>
      <trkpt lat="44.98669" lon="4.52483">
        <ele>354</ele>
        <time>2015-11-05T08:09:56Z</time>
      </trkpt>
      <trkpt lat="44.98662" lon="4.5247">
        <ele>353</ele>
        <time>2015-11-05T08:10:00Z</time>
      </trkpt>
      <trkpt lat="44.9866" lon="4.52466">
        <ele>353</ele>
        <time>2015-11-05T08:10:02Z</time>
      </trkpt>
      <trkpt lat="44.98654" lon="4.52461">
        <ele>352</ele>
        <time>2015-11-05T08:10:06Z</time>
      </trkpt>
      <trkpt lat="44.98649" lon="4.52454">
        <ele>352</ele>
        <time>2015-11-05T08:10:14Z</time>
      </trkpt>
      <trkpt lat="44.98641" lon="4.52443">
        <ele>351</ele>
        <time>2015-11-05T08:10:18Z</time>
      </trkpt>
      <trkpt lat="44.98637" lon="4.52432">
        <ele>350</ele>
        <time>2015-11-05T08:10:27Z</time>
      </trkpt>
      <trkpt lat="44.98631" lon="4.52425">
        <ele>350</ele>
        <time>2015-11-05T08:10:34Z</time>
      </trkpt>
      <trkpt lat="44.98629" lon="4.52417">
        <ele>350</ele>
        <time>2015-11-05T08:10:42Z</time>
      </trkpt>
      <trkpt lat="44.98623" lon="4.52416">
        <ele>350</ele>
        <time>2015-11-05T08:10:54Z</time>
      </trkpt>
      <trkpt lat="44.98618" lon="4.52399">
        <ele>350</ele>
        <time>2015-11-05T08:11:00Z</time>
      </trkpt>
      <trkpt lat="44.98614" lon="4.52379">
        <ele>350</ele>
        <time>2015-11-05T08:11:02Z</time>
      </trkpt>
      <trkpt lat="44.98616" lon="4.52368">
        <ele>349</ele>
        <time>2015-11-05T08:11:07Z</time>
      </trkpt>
      <trkpt lat="44.98617" lon="4.52357">
        <ele>349</ele>
        <time>2015-11-05T08:11:13Z</time>
      </trkpt>
      <trkpt lat="44.98617" lon="4.52347">
        <ele>349</ele>
        <time>2015-11-05T08:11:18Z</time>
      </trkpt>
      <trkpt lat="44.98618" lon="4.52328">
        <ele>349</ele>
        <time>2015-11-05T08:11:22Z</time>
      </trkpt>
      <trkpt lat="44.98613" lon="4.5232">
        <ele>349</ele>
        <time>2015-11-05T08:11:27Z</time>
      </trkpt>
      <trkpt lat="44.9861" lon="4.52308">
        <ele>349</ele>
        <time>2015-11-05T08:11:32Z</time>
      </trkpt>
      <trkpt lat="44.98607" lon="4.523">
        <ele>349</ele>
        <time>2015-11-05T08:11:37Z</time>
      </trkpt>
      <trkpt lat="44.98601" lon="4.5228">
        <ele>348</ele>
        <time>2015-11-05T08:11:42Z</time>
      </trkpt>
      <trkpt lat="44.98597" lon="4.52261">
        <ele>349</ele>
        <time>2015-11-05T08:11:46Z</time>
      </trkpt>
      <trkpt lat="44.98594" lon="4.5225">
        <ele>350</ele>
        <time>2015-11-05T08:11:52Z</time>
      </trkpt>
      <trkpt lat="44.9859" lon="4.52242">
        <ele>351</ele>
        <time>2015-11-05T08:11:58Z</time>
      </trkpt>
      <trkpt lat="44.98585" lon="4.52234">
        <ele>352</ele>
        <time>2015-11-05T08:12:03Z</time>
      </trkpt>
      <trkpt lat="44.9858" lon="4.52231">
        <ele>353</ele>
        <time>2015-11-05T08:12:07Z</time>
      </trkpt>
      <trkpt lat="44.98586" lon="4.52226">
        <ele>358</ele>
        <time>2015-11-05T08:12:20Z</time>
      </trkpt>
      <trkpt lat="44.9859" lon="4.52225">
        <ele>359</ele>
        <time>2015-11-05T08:12:22Z</time>
      </trkpt>
      <trkpt lat="44.98584" lon="4.52238">
        <ele>361</ele>
        <time>2015-11-05T08:12:29Z</time>
      </trkpt>
      <trkpt lat="44.98579" lon="4.52248">
        <ele>362</ele>
        <time>2015-11-05T08:12:37Z</time>
      </trkpt>
      <trkpt lat="44.98571" lon="4.52245">
        <ele>364</ele>
        <time>2015-11-05T08:12:41Z</time>
      </trkpt>
      <trkpt lat="44.98563" lon="4.52246">
        <ele>366</ele>
        <time>2015-11-05T08:12:47Z</time>
      </trkpt>
      <trkpt lat="44.98556" lon="4.52246">
        <ele>366</ele>
        <time>2015-11-05T08:12:52Z</time>
      </trkpt>
      <trkpt lat="44.98543" lon="4.52249">
        <ele>368</ele>
        <time>2015-11-05T08:12:57Z</time>
      </trkpt>
      <trkpt lat="44.98538" lon="4.52252">
        <ele>368</ele>
        <time>2015-11-05T08:13:01Z</time>
      </trkpt>
      <trkpt lat="44.98527" lon="4.52258">
        <ele>370</ele>
        <time>2015-11-05T08:13:07Z</time>
      </trkpt>
      <trkpt lat="44.9852" lon="4.52256">
        <ele>371</ele>
        <time>2015-11-05T08:13:11Z</time>
      </trkpt>
      <trkpt lat="44.98511" lon="4.5225">
        <ele>371</ele>
        <time>2015-11-05T08:13:18Z</time>
      </trkpt>
      <trkpt lat="44.98504" lon="4.52243">
        <ele>371</ele>
        <time>2015-11-05T08:13:21Z</time>
      </trkpt>
      <trkpt lat="44.98488" lon="4.52216">
        <ele>372</ele>
        <time>2015-11-05T08:13:32Z</time>
      </trkpt>
      <trkpt lat="44.98485" lon="4.52208">
        <ele>373</ele>
        <time>2015-11-05T08:13:36Z</time>
      </trkpt>
      <trkpt lat="44.98481" lon="4.52197">
        <ele>374</ele>
        <time>2015-11-05T08:13:39Z</time>
      </trkpt>
      <trkpt lat="44.98476" lon="4.52187">
        <ele>374</ele>
        <time>2015-11-05T08:13:43Z</time>
      </trkpt>
      <trkpt lat="44.98465" lon="4.52172">
        <ele>375</ele>
        <time>2015-11-05T08:13:48Z</time>
      </trkpt>
      <trkpt lat="44.98457" lon="4.52162">
        <ele>376</ele>
        <time>2015-11-05T08:13:52Z</time>
      </trkpt>
      <trkpt lat="44.98451" lon="4.52157">
        <ele>377</ele>
        <time>2015-11-05T08:13:56Z</time>
      </trkpt>
      <trkpt lat="44.98443" lon="4.52154">
        <ele>378</ele>
        <time>2015-11-05T08:14:02Z</time>
      </trkpt>
      <trkpt lat="44.98436" lon="4.52152">
        <ele>380</ele>
        <time>2015-11-05T08:14:11Z</time>
      </trkpt>
      <trkpt lat="44.98442" lon="4.52146">
        <ele>387</ele>
        <time>2015-11-05T08:14:52Z</time>
      </trkpt>
      <trkpt lat="44.98452" lon="4.5215">
        <ele>387</ele>
        <time>2015-11-05T08:14:56Z</time>
      </trkpt>
      <trkpt lat="44.98462" lon="4.52154">
        <ele>388</ele>
        <time>2015-11-05T08:15:00Z</time>
      </trkpt>
      <trkpt lat="44.98469" lon="4.5216">
        <ele>390</ele>
        <time>2015-11-05T08:15:04Z</time>
      </trkpt>
      <trkpt lat="44.98476" lon="4.52171">
        <ele>390</ele>
        <time>2015-11-05T08:15:09Z</time>
      </trkpt>
      <trkpt lat="44.98472" lon="4.52184">
        <ele>392</ele>
        <time>2015-11-05T08:15:14Z</time>
      </trkpt>
      <trkpt lat="44.98463" lon="4.52191">
        <ele>392</ele>
        <time>2015-11-05T08:15:18Z</time>
      </trkpt>
      <trkpt lat="44.98446" lon="4.52201">
        <ele>394</ele>
        <time>2015-11-05T08:15:23Z</time>
      </trkpt>
      <trkpt lat="44.98434" lon="4.52204">
        <ele>394</ele>
        <time>2015-11-05T08:15:27Z</time>
      </trkpt>
      <trkpt lat="44.98421" lon="4.52215">
        <ele>396</ele>
        <time>2015-11-05T08:15:32Z</time>
      </trkpt>
      <trkpt lat="44.98414" lon="4.52225">
        <ele>397</ele>
        <time>2015-11-05T08:15:36Z</time>
      </trkpt>
      <trkpt lat="44.98406" lon="4.52237">
        <ele>398</ele>
        <time>2015-11-05T08:15:40Z</time>
      </trkpt>
      <trkpt lat="44.98397" lon="4.52249">
        <ele>399</ele>
        <time>2015-11-05T08:15:44Z</time>
      </trkpt>
      <trkpt lat="44.98386" lon="4.52265">
        <ele>400</ele>
        <time>2015-11-05T08:15:48Z</time>
      </trkpt>
      <trkpt lat="44.98378" lon="4.52278">
        <ele>401</ele>
        <time>2015-11-05T08:15:52Z</time>
      </trkpt>
      <trkpt lat="44.98371" lon="4.52288">
        <ele>402</ele>
        <time>2015-11-05T08:15:56Z</time>
      </trkpt>
      <trkpt lat="44.98368" lon="4.52293">
        <ele>403</ele>
        <time>2015-11-05T08:16:00Z</time>
      </trkpt>
      <trkpt lat="44.98362" lon="4.52307">
        <ele>405</ele>
        <time>2015-11-05T08:16:04Z</time>
      </trkpt>
      <trkpt lat="44.98356" lon="4.52323">
        <ele>406</ele>
        <time>2015-11-05T08:16:08Z</time>
      </trkpt>
      <trkpt lat="44.98348" lon="4.52332">
        <ele>407</ele>
        <time>2015-11-05T08:16:12Z</time>
      </trkpt>
      <trkpt lat="44.98341" lon="4.5234">
        <ele>409</ele>
        <time>2015-11-05T08:16:16Z</time>
      </trkpt>
      <trkpt lat="44.98336" lon="4.52348">
        <ele>411</ele>
        <time>2015-11-05T08:16:21Z</time>
      </trkpt>
      <trkpt lat="44.98331" lon="4.52354">
        <ele>415</ele>
        <time>2015-11-05T08:16:36Z</time>
      </trkpt>
      <trkpt lat="44.98326" lon="4.52363">
        <ele>415</ele>
        <time>2015-11-05T08:16:39Z</time>
      </trkpt>
      <trkpt lat="44.98318" lon="4.52376">
        <ele>417</ele>
        <time>2015-11-05T08:16:44Z</time>
      </trkpt>
      <trkpt lat="44.98312" lon="4.52389">
        <ele>418</ele>
        <time>2015-11-05T08:16:48Z</time>
      </trkpt>
      <trkpt lat="44.98306" lon="4.52404">
        <ele>418</ele>
        <time>2015-11-05T08:16:51Z</time>
      </trkpt>
      <trkpt lat="44.98301" lon="4.52417">
        <ele>419</ele>
        <time>2015-11-05T08:16:55Z</time>
      </trkpt>
      <trkpt lat="44.98299" lon="4.52429">
        <ele>421</ele>
        <time>2015-11-05T08:17:01Z</time>
      </trkpt>
      <trkpt lat="44.98294" lon="4.52442">
        <ele>422</ele>
        <time>2015-11-05T08:17:05Z</time>
      </trkpt>
      <trkpt lat="44.98287" lon="4.52458">
        <ele>422</ele>
        <time>2015-11-05T08:17:09Z</time>
      </trkpt>
      <trkpt lat="44.98279" lon="4.52475">
        <ele>424</ele>
        <time>2015-11-05T08:17:14Z</time>
      </trkpt>
      <trkpt lat="44.98276" lon="4.52482">
        <ele>424</ele>
        <time>2015-11-05T08:17:17Z</time>
      </trkpt>
      <trkpt lat="44.9827" lon="4.52493">
        <ele>425</ele>
        <time>2015-11-05T08:17:20Z</time>
      </trkpt>
      <trkpt lat="44.98262" lon="4.52506">
        <ele>427</ele>
        <time>2015-11-05T08:17:25Z</time>
      </trkpt>
      <trkpt lat="44.98259" lon="4.52516">
        <ele>428</ele>
        <time>2015-11-05T08:17:28Z</time>
      </trkpt>
      <trkpt lat="44.98253" lon="4.52525">
        <ele>429</ele>
        <time>2015-11-05T08:17:32Z</time>
      </trkpt>
      <trkpt lat="44.98248" lon="4.52532">
        <ele>430</ele>
        <time>2015-11-05T08:17:35Z</time>
      </trkpt>
      <trkpt lat="44.98242" lon="4.52535">
        <ele>431</ele>
        <time>2015-11-05T08:17:39Z</time>
      </trkpt>
      <trkpt lat="44.98235" lon="4.52537">
        <ele>432</ele>
        <time>2015-11-05T08:17:44Z</time>
      </trkpt>
      <trkpt lat="44.98227" lon="4.52544">
        <ele>433</ele>
        <time>2015-11-05T08:17:48Z</time>
      </trkpt>
      <trkpt lat="44.98219" lon="4.52547">
        <ele>435</ele>
        <time>2015-11-05T08:17:56Z</time>
      </trkpt>
      <trkpt lat="44.98209" lon="4.52555">
        <ele>436</ele>
        <time>2015-11-05T08:18:00Z</time>
      </trkpt>
      <trkpt lat="44.982" lon="4.52561">
        <ele>437</ele>
        <time>2015-11-05T08:18:04Z</time>
      </trkpt>
      <trkpt lat="44.98195" lon="4.5256">
        <ele>438</ele>
        <time>2015-11-05T08:18:07Z</time>
      </trkpt>
      <trkpt lat="44.98185" lon="4.52563">
        <ele>439</ele>
        <time>2015-11-05T08:18:12Z</time>
      </trkpt>
      <trkpt lat="44.98175" lon="4.5256">
        <ele>440</ele>
        <time>2015-11-05T08:18:17Z</time>
      </trkpt>
      <trkpt lat="44.98169" lon="4.52567">
        <ele>441</ele>
        <time>2015-11-05T08:18:20Z</time>
      </trkpt>
      <trkpt lat="44.9816" lon="4.52567">
        <ele>442</ele>
        <time>2015-11-05T08:18:24Z</time>
      </trkpt>
      <trkpt lat="44.98153" lon="4.52568">
        <ele>443</ele>
        <time>2015-11-05T08:18:27Z</time>
      </trkpt>
      <trkpt lat="44.98143" lon="4.52569">
        <ele>444</ele>
        <time>2015-11-05T08:18:32Z</time>
      </trkpt>
      <trkpt lat="44.98129" lon="4.52572">
        <ele>445</ele>
        <time>2015-11-05T08:18:37Z</time>
      </trkpt>
      <trkpt lat="44.98116" lon="4.52577">
        <ele>447</ele>
        <time>2015-11-05T08:18:41Z</time>
      </trkpt>
      <trkpt lat="44.98107" lon="4.52584">
        <ele>448</ele>
        <time>2015-11-05T08:18:44Z</time>
      </trkpt>
      <trkpt lat="44.98096" lon="4.52593">
        <ele>450</ele>
        <time>2015-11-05T08:18:49Z</time>
      </trkpt>
      <trkpt lat="44.98092" lon="4.52596">
        <ele>451</ele>
        <time>2015-11-05T08:18:52Z</time>
      </trkpt>
      <trkpt lat="44.98079" lon="4.52601">
        <ele>454</ele>
        <time>2015-11-05T08:18:57Z</time>
      </trkpt>
      <trkpt lat="44.9807" lon="4.526">
        <ele>457</ele>
        <time>2015-11-05T08:19:03Z</time>
      </trkpt>
      <trkpt lat="44.98062" lon="4.52601">
        <ele>460</ele>
        <time>2015-11-05T08:19:07Z</time>
      </trkpt>
      <trkpt lat="44.98055" lon="4.52601">
        <ele>462</ele>
        <time>2015-11-05T08:19:11Z</time>
      </trkpt>
      <trkpt lat="44.98049" lon="4.52598">
        <ele>465</ele>
        <time>2015-11-05T08:19:15Z</time>
      </trkpt>
      <trkpt lat="44.98039" lon="4.526">
        <ele>468</ele>
        <time>2015-11-05T08:19:19Z</time>
      </trkpt>
      <trkpt lat="44.98033" lon="4.52593">
        <ele>471</ele>
        <time>2015-11-05T08:19:24Z</time>
      </trkpt>
      <trkpt lat="44.98022" lon="4.52591">
        <ele>474</ele>
        <time>2015-11-05T08:19:28Z</time>
      </trkpt>
      <trkpt lat="44.98014" lon="4.52587">
        <ele>479</ele>
        <time>2015-11-05T08:19:43Z</time>
      </trkpt>
      <trkpt lat="44.98" lon="4.52566">
        <ele>481</ele>
        <time>2015-11-05T08:19:48Z</time>
      </trkpt>
      <trkpt lat="44.97996" lon="4.52555">
        <ele>483</ele>
        <time>2015-11-05T08:19:53Z</time>
      </trkpt>
      <trkpt lat="44.97989" lon="4.52549">
        <ele>487</ele>
        <time>2015-11-05T08:20:09Z</time>
      </trkpt>
      <trkpt lat="44.9798" lon="4.52551">
        <ele>488</ele>
        <time>2015-11-05T08:20:13Z</time>
      </trkpt>
      <trkpt lat="44.97977" lon="4.52557">
        <ele>489</ele>
        <time>2015-11-05T08:20:18Z</time>
      </trkpt>
      <trkpt lat="44.9797" lon="4.52563">
        <ele>490</ele>
        <time>2015-11-05T08:20:24Z</time>
      </trkpt>
      <trkpt lat="44.97964" lon="4.52565">
        <ele>492</ele>
        <time>2015-11-05T08:20:29Z</time>
      </trkpt>
      <trkpt lat="44.97958" lon="4.52562">
        <ele>494</ele>
        <time>2015-11-05T08:20:34Z</time>
      </trkpt>
      <trkpt lat="44.97951" lon="4.52556">
        <ele>495</ele>
        <time>2015-11-05T08:20:41Z</time>
      </trkpt>
      <trkpt lat="44.97944" lon="4.5255">
        <ele>496</ele>
        <time>2015-11-05T08:20:46Z</time>
      </trkpt>
      <trkpt lat="44.97937" lon="4.52543">
        <ele>497</ele>
        <time>2015-11-05T08:20:54Z</time>
      </trkpt>
      <trkpt lat="44.97929" lon="4.52543">
        <ele>501</ele>
        <time>2015-11-05T08:21:11Z</time>
      </trkpt>
      <trkpt lat="44.97927" lon="4.52547">
        <ele>502</ele>
        <time>2015-11-05T08:21:21Z</time>
      </trkpt>
      <trkpt lat="44.97921" lon="4.52556">
        <ele>504</ele>
        <time>2015-11-05T08:21:26Z</time>
      </trkpt>
      <trkpt lat="44.9792" lon="4.52568">
        <ele>505</ele>
        <time>2015-11-05T08:21:35Z</time>
      </trkpt>
      <trkpt lat="44.97919" lon="4.5258">
        <ele>506</ele>
        <time>2015-11-05T08:21:40Z</time>
      </trkpt>
      <trkpt lat="44.97918" lon="4.52591">
        <ele>507</ele>
        <time>2015-11-05T08:21:46Z</time>
      </trkpt>
      <trkpt lat="44.97916" lon="4.52603">
        <ele>512</ele>
        <time>2015-11-05T08:22:01Z</time>
      </trkpt>
      <trkpt lat="44.97909" lon="4.5261">
        <ele>513</ele>
        <time>2015-11-05T08:22:07Z</time>
      </trkpt>
      <trkpt lat="44.97904" lon="4.52619">
        <ele>515</ele>
        <time>2015-11-05T08:22:15Z</time>
      </trkpt>
      <trkpt lat="44.97901" lon="4.52629">
        <ele>518</ele>
        <time>2015-11-05T08:22:23Z</time>
      </trkpt>
      <trkpt lat="44.97899" lon="4.52639">
        <ele>519</ele>
        <time>2015-11-05T08:22:32Z</time>
      </trkpt>
      <trkpt lat="44.979" lon="4.52645">
        <ele>520</ele>
        <time>2015-11-05T08:22:37Z</time>
      </trkpt>
      <trkpt lat="44.97893" lon="4.52655">
        <ele>521</ele>
        <time>2015-11-05T08:22:41Z</time>
      </trkpt>
      <trkpt lat="44.97891" lon="4.52668">
        <ele>525</ele>
        <time>2015-11-05T08:22:50Z</time>
      </trkpt>
      <trkpt lat="44.97884" lon="4.52664">
        <ele>532</ele>
        <time>2015-11-05T08:23:00Z</time>
      </trkpt>
      <trkpt lat="44.97877" lon="4.52663">
        <ele>534</ele>
        <time>2015-11-05T08:23:05Z</time>
      </trkpt>
      <trkpt lat="44.97872" lon="4.52672">
        <ele>536</ele>
        <time>2015-11-05T08:23:14Z</time>
      </trkpt>
      <trkpt lat="44.97871" lon="4.52684">
        <ele>537</ele>
        <time>2015-11-05T08:23:21Z</time>
      </trkpt>
      <trkpt lat="44.97871" lon="4.52694">
        <ele>537</ele>
        <time>2015-11-05T08:23:27Z</time>
      </trkpt>
      <trkpt lat="44.97869" lon="4.52705">
        <ele>538</ele>
        <time>2015-11-05T08:23:32Z</time>
      </trkpt>
      <trkpt lat="44.97867" lon="4.52716">
        <ele>539</ele>
        <time>2015-11-05T08:23:37Z</time>
      </trkpt>
      <trkpt lat="44.97869" lon="4.52728">
        <ele>540</ele>
        <time>2015-11-05T08:23:41Z</time>
      </trkpt>
      <trkpt lat="44.9787" lon="4.52737">
        <ele>542</ele>
        <time>2015-11-05T08:23:45Z</time>
      </trkpt>
      <trkpt lat="44.97871" lon="4.52747">
        <ele>545</ele>
        <time>2015-11-05T08:23:51Z</time>
      </trkpt>
      <trkpt lat="44.97872" lon="4.52758">
        <ele>547</ele>
        <time>2015-11-05T08:23:56Z</time>
      </trkpt>
      <trkpt lat="44.97877" lon="4.52765">
        <ele>548</ele>
        <time>2015-11-05T08:24:00Z</time>
      </trkpt>
      <trkpt lat="44.97882" lon="4.52783">
        <ele>553</ele>
        <time>2015-11-05T08:24:04Z</time>
      </trkpt>
      <trkpt lat="44.97889" lon="4.52792">
        <ele>557</ele>
        <time>2015-11-05T08:24:08Z</time>
      </trkpt>
      <trkpt lat="44.97897" lon="4.52796">
        <ele>562</ele>
        <time>2015-11-05T08:24:50Z</time>
      </trkpt>
      <trkpt lat="44.97903" lon="4.52805">
        <ele>569</ele>
        <time>2015-11-05T08:24:54Z</time>
      </trkpt>
      <trkpt lat="44.97904" lon="4.52815">
        <ele>570</ele>
        <time>2015-11-05T08:25:04Z</time>
      </trkpt>
      <trkpt lat="44.97904" lon="4.52826">
        <ele>570</ele>
        <time>2015-11-05T08:25:10Z</time>
      </trkpt>
      <trkpt lat="44.97905" lon="4.52838">
        <ele>570</ele>
        <time>2015-11-05T08:25:15Z</time>
      </trkpt>
      <trkpt lat="44.97905" lon="4.52852">
        <ele>569</ele>
        <time>2015-11-05T08:25:20Z</time>
      </trkpt>
      <trkpt lat="44.97904" lon="4.52864">
        <ele>569</ele>
        <time>2015-11-05T08:25:24Z</time>
      </trkpt>
      <trkpt lat="44.97902" lon="4.52877">
        <ele>569</ele>
        <time>2015-11-05T08:25:31Z</time>
      </trkpt>
      <trkpt lat="44.97893" lon="4.52882">
        <ele>570</ele>
        <time>2015-11-05T08:25:36Z</time>
      </trkpt>
      <trkpt lat="44.97883" lon="4.5289">
        <ele>570</ele>
        <time>2015-11-05T08:25:40Z</time>
      </trkpt>
      <trkpt lat="44.97875" lon="4.529">
        <ele>570</ele>
        <time>2015-11-05T08:25:44Z</time>
      </trkpt>
      <trkpt lat="44.97868" lon="4.52909">
        <ele>571</ele>
        <time>2015-11-05T08:25:48Z</time>
      </trkpt>
      <trkpt lat="44.97861" lon="4.52917">
        <ele>571</ele>
        <time>2015-11-05T08:25:52Z</time>
      </trkpt>
      <trkpt lat="44.97857" lon="4.52926">
        <ele>572</ele>
        <time>2015-11-05T08:25:56Z</time>
      </trkpt>
      <trkpt lat="44.97849" lon="4.52935">
        <ele>573</ele>
        <time>2015-11-05T08:26:00Z</time>
      </trkpt>
      <trkpt lat="44.9784" lon="4.52946">
        <ele>574</ele>
        <time>2015-11-05T08:26:05Z</time>
      </trkpt>
      <trkpt lat="44.97822" lon="4.52952">
        <ele>574</ele>
        <time>2015-11-05T08:26:13Z</time>
      </trkpt>
      <trkpt lat="44.97816" lon="4.52955">
        <ele>575</ele>
        <time>2015-11-05T08:26:16Z</time>
      </trkpt>
      <trkpt lat="44.97806" lon="4.52955">
        <ele>575</ele>
        <time>2015-11-05T08:26:20Z</time>
      </trkpt>
      <trkpt lat="44.97789" lon="4.52916">
        <ele>576</ele>
        <time>2015-11-05T08:26:44Z</time>
      </trkpt>
      <trkpt lat="44.97781" lon="4.52899">
        <ele>577</ele>
        <time>2015-11-05T08:26:48Z</time>
      </trkpt>
      <trkpt lat="44.97778" lon="4.52889">
        <ele>578</ele>
        <time>2015-11-05T08:26:52Z</time>
      </trkpt>
      <trkpt lat="44.97772" lon="4.52876">
        <ele>579</ele>
        <time>2015-11-05T08:27:00Z</time>
      </trkpt>
      <trkpt lat="44.97771" lon="4.52874">
        <ele>579</ele>
        <time>2015-11-05T08:27:00Z</time>
      </trkpt>
      <trkpt lat="44.97755" lon="4.52852">
        <ele>581</ele>
        <time>2015-11-05T08:27:13Z</time>
      </trkpt>
      <trkpt lat="44.9775" lon="4.52841">
        <ele>581</ele>
        <time>2015-11-05T08:27:17Z</time>
      </trkpt>
      <trkpt lat="44.97741" lon="4.52825">
        <ele>581</ele>
        <time>2015-11-05T08:27:22Z</time>
      </trkpt>
      <trkpt lat="44.97737" lon="4.52816">
        <ele>581</ele>
        <time>2015-11-05T08:27:26Z</time>
      </trkpt>
      <trkpt lat="44.97733" lon="4.52804">
        <ele>583</ele>
        <time>2015-11-05T08:27:31Z</time>
      </trkpt>
      <trkpt lat="44.97729" lon="4.52796">
        <ele>584</ele>
        <time>2015-11-05T08:27:35Z</time>
      </trkpt>
      <trkpt lat="44.97725" lon="4.52791">
        <ele>584</ele>
        <time>2015-11-05T08:27:38Z</time>
      </trkpt>
      <trkpt lat="44.97715" lon="4.52784">
        <ele>585</ele>
        <time>2015-11-05T08:27:43Z</time>
      </trkpt>
      <trkpt lat="44.9771" lon="4.52779">
        <ele>586</ele>
        <time>2015-11-05T08:27:46Z</time>
      </trkpt>
      <trkpt lat="44.97702" lon="4.52771">
        <ele>586</ele>
        <time>2015-11-05T08:27:51Z</time>
      </trkpt>
      <trkpt lat="44.97697" lon="4.52764">
        <ele>587</ele>
        <time>2015-11-05T08:27:55Z</time>
      </trkpt>
      <trkpt lat="44.9769" lon="4.52757">
        <ele>587</ele>
        <time>2015-11-05T08:27:59Z</time>
      </trkpt>
      <trkpt lat="44.97686" lon="4.52751">
        <ele>588</ele>
        <time>2015-11-05T08:28:02Z</time>
      </trkpt>
      <trkpt lat="44.97681" lon="4.52743">
        <ele>588</ele>
        <time>2015-11-05T08:28:08Z</time>
      </trkpt>
      <trkpt lat="44.97676" lon="4.52736">
        <ele>589</ele>
        <time>2015-11-05T08:28:14Z</time>
      </trkpt>
      <trkpt lat="44.97669" lon="4.52727">
        <ele>590</ele>
        <time>2015-11-05T08:28:22Z</time>
      </trkpt>
      <trkpt lat="44.97665" lon="4.52721">
        <ele>591</ele>
        <time>2015-11-05T08:28:27Z</time>
      </trkpt>
      <trkpt lat="44.9766" lon="4.52714">
        <ele>591</ele>
        <time>2015-11-05T08:28:31Z</time>
      </trkpt>
      <trkpt lat="44.97652" lon="4.52707">
        <ele>592</ele>
        <time>2015-11-05T08:28:36Z</time>
      </trkpt>
      <trkpt lat="44.97648" lon="4.52698">
        <ele>592</ele>
        <time>2015-11-05T08:28:40Z</time>
      </trkpt>
      <trkpt lat="44.97647" lon="4.52686">
        <ele>594</ele>
        <time>2015-11-05T08:28:46Z</time>
      </trkpt>
      <trkpt lat="44.97641" lon="4.52676">
        <ele>597</ele>
        <time>2015-11-05T08:28:55Z</time>
      </trkpt>
      <trkpt lat="44.97638" lon="4.52665">
        <ele>599</ele>
        <time>2015-11-05T08:29:00Z</time>
      </trkpt>
      <trkpt lat="44.97635" lon="4.52657">
        <ele>600</ele>
        <time>2015-11-05T08:29:05Z</time>
      </trkpt>
      <trkpt lat="44.97632" lon="4.52648">
        <ele>602</ele>
        <time>2015-11-05T08:29:10Z</time>
      </trkpt>
      <trkpt lat="44.97628" lon="4.52639">
        <ele>603</ele>
        <time>2015-11-05T08:29:16Z</time>
      </trkpt>
      <trkpt lat="44.97625" lon="4.52628">
        <ele>605</ele>
        <time>2015-11-05T08:29:22Z</time>
      </trkpt>
      <trkpt lat="44.97621" lon="4.52612">
        <ele>607</ele>
        <time>2015-11-05T08:29:27Z</time>
      </trkpt>
      <trkpt lat="44.97617" lon="4.52603">
        <ele>608</ele>
        <time>2015-11-05T08:29:30Z</time>
      </trkpt>
      <trkpt lat="44.97616" lon="4.52593">
        <ele>608</ele>
        <time>2015-11-05T08:29:33Z</time>
      </trkpt>
      <trkpt lat="44.97614" lon="4.52585">
        <ele>609</ele>
        <time>2015-11-05T08:29:36Z</time>
      </trkpt>
      <trkpt lat="44.97612" lon="4.52575">
        <ele>610</ele>
        <time>2015-11-05T08:29:39Z</time>
      </trkpt>
      <trkpt lat="44.97608" lon="4.52565">
        <ele>610</ele>
        <time>2015-11-05T08:29:43Z</time>
      </trkpt>
      <trkpt lat="44.97602" lon="4.52557">
        <ele>611</ele>
        <time>2015-11-05T08:29:47Z</time>
      </trkpt>
      <trkpt lat="44.97595" lon="4.52543">
        <ele>612</ele>
        <time>2015-11-05T08:29:52Z</time>
      </trkpt>
      <trkpt lat="44.9759" lon="4.52528">
        <ele>613</ele>
        <time>2015-11-05T08:29:57Z</time>
      </trkpt>
      <trkpt lat="44.97585" lon="4.52516">
        <ele>614</ele>
        <time>2015-11-05T08:30:02Z</time>
      </trkpt>
      <trkpt lat="44.97581" lon="4.52507">
        <ele>616</ele>
        <time>2015-11-05T08:30:07Z</time>
      </trkpt>
      <trkpt lat="44.97577" lon="4.52496">
        <ele>617</ele>
        <time>2015-11-05T08:30:12Z</time>
      </trkpt>
      <trkpt lat="44.97573" lon="4.52484">
        <ele>618</ele>
        <time>2015-11-05T08:30:16Z</time>
      </trkpt>
      <trkpt lat="44.9757" lon="4.52469">
        <ele>619</ele>
        <time>2015-11-05T08:30:21Z</time>
      </trkpt>
      <trkpt lat="44.97563" lon="4.52453">
        <ele>620</ele>
        <time>2015-11-05T08:30:25Z</time>
      </trkpt>
      <trkpt lat="44.97556" lon="4.52431">
        <ele>622</ele>
        <time>2015-11-05T08:30:32Z</time>
      </trkpt>
      <trkpt lat="44.97553" lon="4.5242">
        <ele>624</ele>
        <time>2015-11-05T08:30:34Z</time>
      </trkpt>
      <trkpt lat="44.97549" lon="4.5241">
        <ele>626</ele>
        <time>2015-11-05T08:30:38Z</time>
      </trkpt>
      <trkpt lat="44.97542" lon="4.52398">
        <ele>627</ele>
        <time>2015-11-05T08:30:42Z</time>
      </trkpt>
      <trkpt lat="44.97537" lon="4.52389">
        <ele>629</ele>
        <time>2015-11-05T08:30:46Z</time>
      </trkpt>
      <trkpt lat="44.97531" lon="4.52383">
        <ele>631</ele>
        <time>2015-11-05T08:30:51Z</time>
      </trkpt>
      <trkpt lat="44.97524" lon="4.52376">
        <ele>633</ele>
        <time>2015-11-05T08:30:57Z</time>
      </trkpt>
      <trkpt lat="44.97519" lon="4.52368">
        <ele>636</ele>
        <time>2015-11-05T08:31:09Z</time>
      </trkpt>
      <trkpt lat="44.97515" lon="4.52358">
        <ele>638</ele>
        <time>2015-11-05T08:31:14Z</time>
      </trkpt>
      <trkpt lat="44.9751" lon="4.52348">
        <ele>639</ele>
        <time>2015-11-05T08:31:20Z</time>
      </trkpt>
      <trkpt lat="44.97503" lon="4.52341">
        <ele>640</ele>
        <time>2015-11-05T08:31:25Z</time>
      </trkpt>
      <trkpt lat="44.975" lon="4.52332">
        <ele>643</ele>
        <time>2015-11-05T08:31:34Z</time>
      </trkpt>
      <trkpt lat="44.97496" lon="4.52321">
        <ele>645</ele>
        <time>2015-11-05T08:31:40Z</time>
      </trkpt>
      <trkpt lat="44.97493" lon="4.5231">
        <ele>646</ele>
        <time>2015-11-05T08:31:46Z</time>
      </trkpt>
      <trkpt lat="44.97494" lon="4.52301">
        <ele>646</ele>
        <time>2015-11-05T08:31:51Z</time>
      </trkpt>
      <trkpt lat="44.97496" lon="4.52293">
        <ele>646</ele>
        <time>2015-11-05T08:31:55Z</time>
      </trkpt>
      <trkpt lat="44.97499" lon="4.52285">
        <ele>647</ele>
        <time>2015-11-05T08:31:59Z</time>
      </trkpt>
      <trkpt lat="44.97504" lon="4.52281">
        <ele>646</ele>
        <time>2015-11-05T08:32:02Z</time>
      </trkpt>
      <trkpt lat="44.97511" lon="4.52274">
        <ele>647</ele>
        <time>2015-11-05T08:32:08Z</time>
      </trkpt>
      <trkpt lat="44.97517" lon="4.52272">
        <ele>647</ele>
        <time>2015-11-05T08:32:12Z</time>
      </trkpt>
      <trkpt lat="44.97524" lon="4.52269">
        <ele>647</ele>
        <time>2015-11-05T08:32:16Z</time>
      </trkpt>
      <trkpt lat="44.9753" lon="4.5226">
        <ele>649</ele>
        <time>2015-11-05T08:32:22Z</time>
      </trkpt>
      <trkpt lat="44.97534" lon="4.5225">
        <ele>650</ele>
        <time>2015-11-05T08:32:30Z</time>
      </trkpt>
      <trkpt lat="44.97538" lon="4.52242">
        <ele>650</ele>
        <time>2015-11-05T08:32:34Z</time>
      </trkpt>
      <trkpt lat="44.97544" lon="4.52234">
        <ele>650</ele>
        <time>2015-11-05T08:32:38Z</time>
      </trkpt>
      <trkpt lat="44.97549" lon="4.52224">
        <ele>650</ele>
        <time>2015-11-05T08:32:42Z</time>
      </trkpt>
      <trkpt lat="44.97555" lon="4.52213">
        <ele>650</ele>
        <time>2015-11-05T08:32:46Z</time>
      </trkpt>
      <trkpt lat="44.97562" lon="4.52202">
        <ele>650</ele>
        <time>2015-11-05T08:32:51Z</time>
      </trkpt>
      <trkpt lat="44.97568" lon="4.52195">
        <ele>649</ele>
        <time>2015-11-05T08:32:55Z</time>
      </trkpt>
      <trkpt lat="44.97579" lon="4.52181">
        <ele>648</ele>
        <time>2015-11-05T08:33:00Z</time>
      </trkpt>
      <trkpt lat="44.97585" lon="4.52178">
        <ele>648</ele>
        <time>2015-11-05T08:33:03Z</time>
      </trkpt>
      <trkpt lat="44.97589" lon="4.52168">
        <ele>646</ele>
        <time>2015-11-05T08:33:08Z</time>
      </trkpt>
      <trkpt lat="44.97589" lon="4.52158">
        <ele>644</ele>
        <time>2015-11-05T08:33:11Z</time>
      </trkpt>
      <trkpt lat="44.97588" lon="4.52147">
        <ele>644</ele>
        <time>2015-11-05T08:33:14Z</time>
      </trkpt>
      <trkpt lat="44.97593" lon="4.52129">
        <ele>643</ele>
        <time>2015-11-05T08:33:18Z</time>
      </trkpt>
      <trkpt lat="44.97598" lon="4.52114">
        <ele>642</ele>
        <time>2015-11-05T08:33:23Z</time>
      </trkpt>
      <trkpt lat="44.97601" lon="4.52103">
        <ele>641</ele>
        <time>2015-11-05T08:33:27Z</time>
      </trkpt>
      <trkpt lat="44.97605" lon="4.52093">
        <ele>640</ele>
        <time>2015-11-05T08:33:30Z</time>
      </trkpt>
      <trkpt lat="44.97609" lon="4.52078">
        <ele>638</ele>
        <time>2015-11-05T08:33:34Z</time>
      </trkpt>
      <trkpt lat="44.97616" lon="4.52062">
        <ele>638</ele>
        <time>2015-11-05T08:33:38Z</time>
      </trkpt>
      <trkpt lat="44.9762" lon="4.52061">
        <ele>637</ele>
        <time>2015-11-05T08:33:42Z</time>
      </trkpt>
      <trkpt lat="44.9763" lon="4.52058">
        <ele>636</ele>
        <time>2015-11-05T08:33:47Z</time>
      </trkpt>
      <trkpt lat="44.97641" lon="4.52056">
        <ele>634</ele>
        <time>2015-11-05T08:33:51Z</time>
      </trkpt>
      <trkpt lat="44.97645" lon="4.52059">
        <ele>634</ele>
        <time>2015-11-05T08:33:53Z</time>
      </trkpt>
      <trkpt lat="44.97651" lon="4.52057">
        <ele>632</ele>
        <time>2015-11-05T08:33:56Z</time>
      </trkpt>
      <trkpt lat="44.97665" lon="4.52048">
        <ele>630</ele>
        <time>2015-11-05T08:34:00Z</time>
      </trkpt>
      <trkpt lat="44.97673" lon="4.52042">
        <ele>628</ele>
        <time>2015-11-05T08:34:05Z</time>
      </trkpt>
      <trkpt lat="44.97677" lon="4.52046">
        <ele>626</ele>
        <time>2015-11-05T08:34:06Z</time>
      </trkpt>
      <trkpt lat="44.97682" lon="4.5206">
        <ele>621</ele>
        <time>2015-11-05T08:34:12Z</time>
      </trkpt>
      <trkpt lat="44.9769" lon="4.52064">
        <ele>617</ele>
        <time>2015-11-05T08:34:18Z</time>
      </trkpt>
      <trkpt lat="44.97699" lon="4.52065">
        <ele>614</ele>
        <time>2015-11-05T08:34:22Z</time>
      </trkpt>
      <trkpt lat="44.97707" lon="4.52072">
        <ele>611</ele>
        <time>2015-11-05T08:34:27Z</time>
      </trkpt>
      <trkpt lat="44.97712" lon="4.52084">
        <ele>608</ele>
        <time>2015-11-05T08:34:34Z</time>
      </trkpt>
      <trkpt lat="44.97736" lon="4.52104">
        <ele>603</ele>
        <time>2015-11-05T08:34:42Z</time>
      </trkpt>
      <trkpt lat="44.97745" lon="4.52112">
        <ele>601</ele>
        <time>2015-11-05T08:34:47Z</time>
      </trkpt>
      <trkpt lat="44.97752" lon="4.52118">
        <ele>598</ele>
        <time>2015-11-05T08:34:51Z</time>
      </trkpt>
      <trkpt lat="44.97758" lon="4.52122">
        <ele>595</ele>
        <time>2015-11-05T08:34:55Z</time>
      </trkpt>
      <trkpt lat="44.97765" lon="4.52124">
        <ele>591</ele>
        <time>2015-11-05T08:35:00Z</time>
      </trkpt>
      <trkpt lat="44.9777" lon="4.52129">
        <ele>587</ele>
        <time>2015-11-05T08:35:07Z</time>
      </trkpt>
      <trkpt lat="44.97769" lon="4.52143">
        <ele>583</ele>
        <time>2015-11-05T08:35:11Z</time>
      </trkpt>
      <trkpt lat="44.97766" lon="4.52156">
        <ele>581</ele>
        <time>2015-11-05T08:35:16Z</time>
      </trkpt>
      <trkpt lat="44.97768" lon="4.52163">
        <ele>579</ele>
        <time>2015-11-05T08:35:20Z</time>
      </trkpt>
      <trkpt lat="44.97771" lon="4.52168">
        <ele>578</ele>
        <time>2015-11-05T08:35:22Z</time>
      </trkpt>
      <trkpt lat="44.9778" lon="4.52173">
        <ele>576</ele>
        <time>2015-11-05T08:35:27Z</time>
      </trkpt>
      <trkpt lat="44.97785" lon="4.5218">
        <ele>573</ele>
        <time>2015-11-05T08:35:32Z</time>
      </trkpt>
      <trkpt lat="44.9779" lon="4.52188">
        <ele>570</ele>
        <time>2015-11-05T08:35:39Z</time>
      </trkpt>
      <trkpt lat="44.97792" lon="4.5219">
        <ele>569</ele>
        <time>2015-11-05T08:35:48Z</time>
      </trkpt>
      <trkpt lat="44.97793" lon="4.52203">
        <ele>564</ele>
        <time>2015-11-05T08:35:51Z</time>
      </trkpt>
      <trkpt lat="44.97796" lon="4.52213">
        <ele>560</ele>
        <time>2015-11-05T08:36:00Z</time>
      </trkpt>
      <trkpt lat="44.97805" lon="4.52226">
        <ele>556</ele>
        <time>2015-11-05T08:36:11Z</time>
      </trkpt>
      <trkpt lat="44.97811" lon="4.52232">
        <ele>553</ele>
        <time>2015-11-05T08:36:19Z</time>
      </trkpt>
      <trkpt lat="44.97819" lon="4.52234">
        <ele>551</ele>
        <time>2015-11-05T08:36:23Z</time>
      </trkpt>
      <trkpt lat="44.97826" lon="4.52244">
        <ele>549</ele>
        <time>2015-11-05T08:36:28Z</time>
      </trkpt>
      <trkpt lat="44.97836" lon="4.52249">
        <ele>548</ele>
        <time>2015-11-05T08:36:32Z</time>
      </trkpt>
      <trkpt lat="44.97838" lon="4.52263">
        <ele>547</ele>
        <time>2015-11-05T08:36:36Z</time>
      </trkpt>
      <trkpt lat="44.97838" lon="4.5227">
        <ele>545</ele>
        <time>2015-11-05T08:36:42Z</time>
      </trkpt>
      <trkpt lat="44.97842" lon="4.52281">
        <ele>542</ele>
        <time>2015-11-05T08:36:49Z</time>
      </trkpt>
      <trkpt lat="44.97847" lon="4.52291">
        <ele>540</ele>
        <time>2015-11-05T08:36:53Z</time>
      </trkpt>
      <trkpt lat="44.9785" lon="4.523">
        <ele>536</ele>
        <time>2015-11-05T08:37:11Z</time>
      </trkpt>
      <trkpt lat="44.97861" lon="4.52315">
        <ele>531</ele>
        <time>2015-11-05T08:37:15Z</time>
      </trkpt>
      <trkpt lat="44.97867" lon="4.52314">
        <ele>528</ele>
        <time>2015-11-05T08:37:19Z</time>
      </trkpt>
      <trkpt lat="44.97882" lon="4.52301">
        <ele>525</ele>
        <time>2015-11-05T08:37:24Z</time>
      </trkpt>
      <trkpt lat="44.97902" lon="4.5229">
        <ele>523</ele>
        <time>2015-11-05T08:37:29Z</time>
      </trkpt>
      <trkpt lat="44.97915" lon="4.5228">
        <ele>521</ele>
        <time>2015-11-05T08:37:33Z</time>
      </trkpt>
      <trkpt lat="44.97932" lon="4.52264">
        <ele>520</ele>
        <time>2015-11-05T08:37:38Z</time>
      </trkpt>
      <trkpt lat="44.97947" lon="4.52258">
        <ele>519</ele>
        <time>2015-11-05T08:37:43Z</time>
      </trkpt>
      <trkpt lat="44.97945" lon="4.52243">
        <ele>517</ele>
        <time>2015-11-05T08:37:47Z</time>
      </trkpt>
      <trkpt lat="44.97952" lon="4.52227">
        <ele>516</ele>
        <time>2015-11-05T08:37:51Z</time>
      </trkpt>
      <trkpt lat="44.97957" lon="4.52207">
        <ele>515</ele>
        <time>2015-11-05T08:37:55Z</time>
      </trkpt>
      <trkpt lat="44.97968" lon="4.52189">
        <ele>514</ele>
        <time>2015-11-05T08:37:59Z</time>
      </trkpt>
      <trkpt lat="44.9798" lon="4.52176">
        <ele>514</ele>
        <time>2015-11-05T08:38:03Z</time>
      </trkpt>
      <trkpt lat="44.97986" lon="4.52164">
        <ele>514</ele>
        <time>2015-11-05T08:38:06Z</time>
      </trkpt>
      <trkpt lat="44.97999" lon="4.52146">
        <ele>514</ele>
        <time>2015-11-05T08:38:11Z</time>
      </trkpt>
      <trkpt lat="44.98004" lon="4.52139">
        <ele>515</ele>
        <time>2015-11-05T08:38:14Z</time>
      </trkpt>
      <trkpt lat="44.9801" lon="4.52129">
        <ele>515</ele>
        <time>2015-11-05T08:38:19Z</time>
      </trkpt>
      <trkpt lat="44.98012" lon="4.52121">
        <ele>515</ele>
        <time>2015-11-05T08:38:23Z</time>
      </trkpt>
      <trkpt lat="44.98019" lon="4.52114">
        <ele>514</ele>
        <time>2015-11-05T08:38:30Z</time>
      </trkpt>
      <trkpt lat="44.98025" lon="4.52105">
        <ele>514</ele>
        <time>2015-11-05T08:38:35Z</time>
      </trkpt>
      <trkpt lat="44.98025" lon="4.52105">
        <ele>514</ele>
        <time>2015-11-05T08:38:42Z</time>
      </trkpt>
      <trkpt lat="44.98038" lon="4.52095">
        <ele>514</ele>
        <time>2015-11-05T08:38:46Z</time>
      </trkpt>
      <trkpt lat="44.98032" lon="4.52088">
        <ele>514</ele>
        <time>2015-11-05T08:38:50Z</time>
      </trkpt>
      <trkpt lat="44.98033" lon="4.52077">
        <ele>515</ele>
        <time>2015-11-05T08:39:03Z</time>
      </trkpt>
      <trkpt lat="44.98029" lon="4.52068">
        <ele>520</ele>
        <time>2015-11-05T08:39:22Z</time>
      </trkpt>
      <trkpt lat="44.98028" lon="4.52066">
        <ele>520</ele>
        <time>2015-11-05T08:39:48Z</time>
      </trkpt>
      <trkpt lat="44.98037" lon="4.52065">
        <ele>525</ele>
        <time>2015-11-05T08:39:54Z</time>
      </trkpt>
      <trkpt lat="44.98035" lon="4.5206">
        <ele>528</ele>
        <time>2015-11-05T08:40:10Z</time>
      </trkpt>
      <trkpt lat="44.98027" lon="4.52054">
        <ele>529</ele>
        <time>2015-11-05T08:40:14Z</time>
      </trkpt>
      <trkpt lat="44.98033" lon="4.52055">
        <ele>532</ele>
        <time>2015-11-05T08:41:02Z</time>
      </trkpt>
      <trkpt lat="44.98048" lon="4.52056">
        <ele>532</ele>
        <time>2015-11-05T08:41:05Z</time>
      </trkpt>
      <trkpt lat="44.98057" lon="4.52055">
        <ele>533</ele>
        <time>2015-11-05T08:41:09Z</time>
      </trkpt>
      <trkpt lat="44.98065" lon="4.52056">
        <ele>533</ele>
        <time>2015-11-05T08:41:14Z</time>
      </trkpt>
      <trkpt lat="44.98072" lon="4.5206">
        <ele>534</ele>
        <time>2015-11-05T08:41:19Z</time>
      </trkpt>
      <trkpt lat="44.98079" lon="4.52064">
        <ele>535</ele>
        <time>2015-11-05T08:41:26Z</time>
      </trkpt>
      <trkpt lat="44.98087" lon="4.52065">
        <ele>536</ele>
        <time>2015-11-05T08:41:33Z</time>
      </trkpt>
      <trkpt lat="44.98083" lon="4.52065">
        <ele>532</ele>
        <time>2015-11-05T08:41:47Z</time>
      </trkpt>
      <trkpt lat="44.98094" lon="4.52066">
        <ele>532</ele>
        <time>2015-11-05T08:41:51Z</time>
      </trkpt>
      <trkpt lat="44.98101" lon="4.52072">
        <ele>532</ele>
        <time>2015-11-05T08:42:19Z</time>
      </trkpt>
      <trkpt lat="44.98113" lon="4.52069">
        <ele>533</ele>
        <time>2015-11-05T08:42:22Z</time>
      </trkpt>
      <trkpt lat="44.9812" lon="4.52068">
        <ele>534</ele>
        <time>2015-11-05T08:42:42Z</time>
      </trkpt>
      <trkpt lat="44.98129" lon="4.52067">
        <ele>534</ele>
        <time>2015-11-05T08:42:47Z</time>
      </trkpt>
      <trkpt lat="44.98135" lon="4.52064">
        <ele>534</ele>
        <time>2015-11-05T08:42:51Z</time>
      </trkpt>
      <trkpt lat="44.98142" lon="4.52055">
        <ele>534</ele>
        <time>2015-11-05T08:42:56Z</time>
      </trkpt>
      <trkpt lat="44.98146" lon="4.52047">
        <ele>534</ele>
        <time>2015-11-05T08:43:00Z</time>
      </trkpt>
      <trkpt lat="44.98149" lon="4.52038">
        <ele>533</ele>
        <time>2015-11-05T08:43:06Z</time>
      </trkpt>
      <trkpt lat="44.9816" lon="4.52022">
        <ele>532</ele>
        <time>2015-11-05T08:43:10Z</time>
      </trkpt>
      <trkpt lat="44.98169" lon="4.52012">
        <ele>531</ele>
        <time>2015-11-05T08:43:14Z</time>
      </trkpt>
      <trkpt lat="44.98176" lon="4.52005">
        <ele>530</ele>
        <time>2015-11-05T08:43:18Z</time>
      </trkpt>
      <trkpt lat="44.98183" lon="4.51999">
        <ele>529</ele>
        <time>2015-11-05T08:43:22Z</time>
      </trkpt>
      <trkpt lat="44.98188" lon="4.5199">
        <ele>528</ele>
        <time>2015-11-05T08:43:26Z</time>
      </trkpt>
      <trkpt lat="44.98195" lon="4.51984">
        <ele>527</ele>
        <time>2015-11-05T08:43:29Z</time>
      </trkpt>
      <trkpt lat="44.98191" lon="4.51965">
        <ele>526</ele>
        <time>2015-11-05T08:43:33Z</time>
      </trkpt>
      <trkpt lat="44.98198" lon="4.51971">
        <ele>526</ele>
        <time>2015-11-05T08:43:43Z</time>
      </trkpt>
      <trkpt lat="44.98214" lon="4.51976">
        <ele>526</ele>
        <time>2015-11-05T08:43:48Z</time>
      </trkpt>
      <trkpt lat="44.98227" lon="4.51981">
        <ele>526</ele>
        <time>2015-11-05T08:43:52Z</time>
      </trkpt>
      <trkpt lat="44.98238" lon="4.51984">
        <ele>527</ele>
        <time>2015-11-05T08:43:56Z</time>
      </trkpt>
      <trkpt lat="44.98244" lon="4.51991">
        <ele>526</ele>
        <time>2015-11-05T08:44:02Z</time>
      </trkpt>
      <trkpt lat="44.98248" lon="4.51993">
        <ele>526</ele>
        <time>2015-11-05T08:44:05Z</time>
      </trkpt>
      <trkpt lat="44.98259" lon="4.52002">
        <ele>527</ele>
        <time>2015-11-05T08:44:10Z</time>
      </trkpt>
      <trkpt lat="44.98263" lon="4.5201">
        <ele>527</ele>
        <time>2015-11-05T08:44:15Z</time>
      </trkpt>
      <trkpt lat="44.98263" lon="4.5202">
        <ele>528</ele>
        <time>2015-11-05T08:44:20Z</time>
      </trkpt>
      <trkpt lat="44.98261" lon="4.52029">
        <ele>528</ele>
        <time>2015-11-05T08:44:24Z</time>
      </trkpt>
      <trkpt lat="44.98263" lon="4.52039">
        <ele>528</ele>
        <time>2015-11-05T08:44:28Z</time>
      </trkpt>
      <trkpt lat="44.98266" lon="4.5205">
        <ele>528</ele>
        <time>2015-11-05T08:44:34Z</time>
      </trkpt>
      <trkpt lat="44.98268" lon="4.52061">
        <ele>529</ele>
        <time>2015-11-05T08:44:40Z</time>
      </trkpt>
      <trkpt lat="44.98273" lon="4.52076">
        <ele>529</ele>
        <time>2015-11-05T08:44:44Z</time>
      </trkpt>
      <trkpt lat="44.98279" lon="4.52089">
        <ele>529</ele>
        <time>2015-11-05T08:44:48Z</time>
      </trkpt>
      <trkpt lat="44.98284" lon="4.52096">
        <ele>528</ele>
        <time>2015-11-05T08:44:52Z</time>
      </trkpt>
      <trkpt lat="44.9829" lon="4.52103">
        <ele>528</ele>
        <time>2015-11-05T08:44:56Z</time>
      </trkpt>
      <trkpt lat="44.98295" lon="4.52114">
        <ele>528</ele>
        <time>2015-11-05T08:45:00Z</time>
      </trkpt>
      <trkpt lat="44.98299" lon="4.52126">
        <ele>528</ele>
        <time>2015-11-05T08:45:04Z</time>
      </trkpt>
      <trkpt lat="44.98303" lon="4.52136">
        <ele>528</ele>
        <time>2015-11-05T08:45:09Z</time>
      </trkpt>
      <trkpt lat="44.98307" lon="4.52146">
        <ele>527</ele>
        <time>2015-11-05T08:45:13Z</time>
      </trkpt>
      <trkpt lat="44.9831" lon="4.52155">
        <ele>526</ele>
        <time>2015-11-05T08:45:18Z</time>
      </trkpt>
      <trkpt lat="44.98315" lon="4.5216">
        <ele>525</ele>
        <time>2015-11-05T08:45:21Z</time>
      </trkpt>
      <trkpt lat="44.98322" lon="4.52166">
        <ele>524</ele>
        <time>2015-11-05T08:45:26Z</time>
      </trkpt>
      <trkpt lat="44.98328" lon="4.52173">
        <ele>522</ele>
        <time>2015-11-05T08:45:32Z</time>
      </trkpt>
      <trkpt lat="44.98336" lon="4.52182">
        <ele>522</ele>
        <time>2015-11-05T08:45:37Z</time>
      </trkpt>
      <trkpt lat="44.98341" lon="4.52188">
        <ele>521</ele>
        <time>2015-11-05T08:45:41Z</time>
      </trkpt>
      <trkpt lat="44.98348" lon="4.52195">
        <ele>520</ele>
        <time>2015-11-05T08:45:47Z</time>
      </trkpt>
      <trkpt lat="44.98356" lon="4.522">
        <ele>518</ele>
        <time>2015-11-05T08:45:55Z</time>
      </trkpt>
      <trkpt lat="44.98364" lon="4.52204">
        <ele>517</ele>
        <time>2015-11-05T08:46:01Z</time>
      </trkpt>
      <trkpt lat="44.98372" lon="4.52208">
        <ele>514</ele>
        <time>2015-11-05T08:46:08Z</time>
      </trkpt>
      <trkpt lat="44.9838" lon="4.5221">
        <ele>514</ele>
        <time>2015-11-05T08:46:14Z</time>
      </trkpt>
      <trkpt lat="44.98388" lon="4.52212">
        <ele>513</ele>
        <time>2015-11-05T08:46:19Z</time>
      </trkpt>
      <trkpt lat="44.98395" lon="4.52219">
        <ele>512</ele>
        <time>2015-11-05T08:46:27Z</time>
      </trkpt>
      <trkpt lat="44.98402" lon="4.52221">
        <ele>511</ele>
        <time>2015-11-05T08:46:32Z</time>
      </trkpt>
      <trkpt lat="44.98409" lon="4.52226">
        <ele>510</ele>
        <time>2015-11-05T08:46:38Z</time>
      </trkpt>
      <trkpt lat="44.98418" lon="4.52228">
        <ele>509</ele>
        <time>2015-11-05T08:46:46Z</time>
      </trkpt>
      <trkpt lat="44.98424" lon="4.52229">
        <ele>509</ele>
        <time>2015-11-05T08:46:50Z</time>
      </trkpt>
      <trkpt lat="44.98431" lon="4.52236">
        <ele>510</ele>
        <time>2015-11-05T08:46:55Z</time>
      </trkpt>
      <trkpt lat="44.98435" lon="4.52242">
        <ele>510</ele>
        <time>2015-11-05T08:46:59Z</time>
      </trkpt>
      <trkpt lat="44.98443" lon="4.52238">
        <ele>509</ele>
        <time>2015-11-05T08:47:22Z</time>
      </trkpt>
      <trkpt lat="44.98449" lon="4.52233">
        <ele>509</ele>
        <time>2015-11-05T08:47:32Z</time>
      </trkpt>
      <trkpt lat="44.98457" lon="4.52231">
        <ele>510</ele>
        <time>2015-11-05T08:47:38Z</time>
      </trkpt>
      <trkpt lat="44.98464" lon="4.52232">
        <ele>510</ele>
        <time>2015-11-05T08:47:44Z</time>
      </trkpt>
      <trkpt lat="44.98469" lon="4.52233">
        <ele>510</ele>
        <time>2015-11-05T08:47:48Z</time>
      </trkpt>
      <trkpt lat="44.98476" lon="4.52232">
        <ele>510</ele>
        <time>2015-11-05T08:47:51Z</time>
      </trkpt>
      <trkpt lat="44.98485" lon="4.52231">
        <ele>513</ele>
        <time>2015-11-05T08:47:56Z</time>
      </trkpt>
      <trkpt lat="44.98494" lon="4.52231">
        <ele>515</ele>
        <time>2015-11-05T08:48:25Z</time>
      </trkpt>
      <trkpt lat="44.98499" lon="4.52226">
        <ele>515</ele>
        <time>2015-11-05T08:48:32Z</time>
      </trkpt>
      <trkpt lat="44.98508" lon="4.52218">
        <ele>514</ele>
        <time>2015-11-05T08:48:47Z</time>
      </trkpt>
      <trkpt lat="44.98513" lon="4.52209">
        <ele>514</ele>
        <time>2015-11-05T08:48:52Z</time>
      </trkpt>
      <trkpt lat="44.98519" lon="4.52206">
        <ele>513</ele>
        <time>2015-11-05T08:48:55Z</time>
      </trkpt>
      <trkpt lat="44.98529" lon="4.52203">
        <ele>513</ele>
        <time>2015-11-05T08:48:58Z</time>
      </trkpt>
      <trkpt lat="44.98541" lon="4.52203">
        <ele>513</ele>
        <time>2015-11-05T08:49:02Z</time>
      </trkpt>
      <trkpt lat="44.98547" lon="4.52203">
        <ele>513</ele>
        <time>2015-11-05T08:49:06Z</time>
      </trkpt>
      <trkpt lat="44.9855" lon="4.52203">
        <ele>512</ele>
        <time>2015-11-05T08:49:07Z</time>
      </trkpt>
      <trkpt lat="44.98573" lon="4.522">
        <ele>507</ele>
        <time>2015-11-05T08:49:22Z</time>
      </trkpt>
      <trkpt lat="44.98576" lon="4.52188">
        <ele>506</ele>
        <time>2015-11-05T08:49:28Z</time>
      </trkpt>
      <trkpt lat="44.98592" lon="4.52185">
        <ele>506</ele>
        <time>2015-11-05T08:49:33Z</time>
      </trkpt>
      <trkpt lat="44.98598" lon="4.5218">
        <ele>506</ele>
        <time>2015-11-05T08:49:45Z</time>
      </trkpt>
      <trkpt lat="44.98618" lon="4.52201">
        <ele>504</ele>
        <time>2015-11-05T08:49:47Z</time>
      </trkpt>
      <trkpt lat="44.98619" lon="4.52189">
        <ele>503</ele>
        <time>2015-11-05T08:49:52Z</time>
      </trkpt>
      <trkpt lat="44.98633" lon="4.52187">
        <ele>503</ele>
        <time>2015-11-05T08:49:56Z</time>
      </trkpt>
      <trkpt lat="44.98647" lon="4.52194">
        <ele>503</ele>
        <time>2015-11-05T08:50:01Z</time>
      </trkpt>
      <trkpt lat="44.98646" lon="4.52197">
        <ele>502</ele>
        <time>2015-11-05T08:50:11Z</time>
      </trkpt>
      <trkpt lat="44.98655" lon="4.52202">
        <ele>501</ele>
        <time>2015-11-05T08:50:24Z</time>
      </trkpt>
      <trkpt lat="44.98664" lon="4.52197">
        <ele>498</ele>
        <time>2015-11-05T08:50:28Z</time>
      </trkpt>
      <trkpt lat="44.98668" lon="4.52196">
        <ele>497</ele>
        <time>2015-11-05T08:50:37Z</time>
      </trkpt>
      <trkpt lat="44.98677" lon="4.52192">
        <ele>496</ele>
        <time>2015-11-05T08:50:42Z</time>
      </trkpt>
      <trkpt lat="44.98687" lon="4.52192">
        <ele>495</ele>
        <time>2015-11-05T08:50:47Z</time>
      </trkpt>
      <trkpt lat="44.98694" lon="4.52189">
        <ele>494</ele>
        <time>2015-11-05T08:50:54Z</time>
      </trkpt>
      <trkpt lat="44.98702" lon="4.5219">
        <ele>493</ele>
        <time>2015-11-05T08:51:07Z</time>
      </trkpt>
      <trkpt lat="44.98715" lon="4.52191">
        <ele>492</ele>
        <time>2015-11-05T08:51:10Z</time>
      </trkpt>
      <trkpt lat="44.9872" lon="4.5219">
        <ele>490</ele>
        <time>2015-11-05T08:51:16Z</time>
      </trkpt>
      <trkpt lat="44.9873" lon="4.5219">
        <ele>489</ele>
        <time>2015-11-05T08:51:19Z</time>
      </trkpt>
      <trkpt lat="44.98762" lon="4.52187">
        <ele>489</ele>
        <time>2015-11-05T08:51:24Z</time>
      </trkpt>
      <trkpt lat="44.98782" lon="4.52192">
        <ele>490</ele>
        <time>2015-11-05T08:51:28Z</time>
      </trkpt>
      <trkpt lat="44.9879" lon="4.52193">
        <ele>491</ele>
        <time>2015-11-05T08:51:47Z</time>
      </trkpt>
      <trkpt lat="44.98796" lon="4.52193">
        <ele>490</ele>
        <time>2015-11-05T08:51:54Z</time>
      </trkpt>
      <trkpt lat="44.98805" lon="4.52199">
        <ele>489</ele>
        <time>2015-11-05T08:51:59Z</time>
      </trkpt>
      <trkpt lat="44.98811" lon="4.52207">
        <ele>488</ele>
        <time>2015-11-05T08:52:05Z</time>
      </trkpt>
      <trkpt lat="44.98819" lon="4.52214">
        <ele>486</ele>
        <time>2015-11-05T08:52:10Z</time>
      </trkpt>
      <trkpt lat="44.98827" lon="4.52212">
        <ele>484</ele>
        <time>2015-11-05T08:52:14Z</time>
      </trkpt>
      <trkpt lat="44.98835" lon="4.52209">
        <ele>483</ele>
        <time>2015-11-05T08:52:18Z</time>
      </trkpt>
      <trkpt lat="44.98841" lon="4.52204">
        <ele>480</ele>
        <time>2015-11-05T08:52:21Z</time>
      </trkpt>
      <trkpt lat="44.98845" lon="4.52194">
        <ele>477</ele>
        <time>2015-11-05T08:52:25Z</time>
      </trkpt>
      <trkpt lat="44.98842" lon="4.52177">
        <ele>474</ele>
        <time>2015-11-05T08:52:29Z</time>
      </trkpt>
      <trkpt lat="44.98833" lon="4.52153">
        <ele>470</ele>
        <time>2015-11-05T08:52:34Z</time>
      </trkpt>
      <trkpt lat="44.98829" lon="4.52137">
        <ele>467</ele>
        <time>2015-11-05T08:52:38Z</time>
      </trkpt>
      <trkpt lat="44.98827" lon="4.52126">
        <ele>464</ele>
        <time>2015-11-05T08:52:42Z</time>
      </trkpt>
      <trkpt lat="44.98825" lon="4.52112">
        <ele>460</ele>
        <time>2015-11-05T08:52:47Z</time>
      </trkpt>
      <trkpt lat="44.98823" lon="4.52101">
        <ele>459</ele>
        <time>2015-11-05T08:52:50Z</time>
      </trkpt>
      <trkpt lat="44.98825" lon="4.52089">
        <ele>457</ele>
        <time>2015-11-05T08:52:54Z</time>
      </trkpt>
      <trkpt lat="44.98833" lon="4.52087">
        <ele>455</ele>
        <time>2015-11-05T08:52:58Z</time>
      </trkpt>
      <trkpt lat="44.98839" lon="4.52085">
        <ele>454</ele>
        <time>2015-11-05T08:53:01Z</time>
      </trkpt>
      <trkpt lat="44.98846" lon="4.52086">
        <ele>451</ele>
        <time>2015-11-05T08:53:05Z</time>
      </trkpt>
      <trkpt lat="44.98854" lon="4.52091">
        <ele>450</ele>
        <time>2015-11-05T08:53:08Z</time>
      </trkpt>
      <trkpt lat="44.98861" lon="4.521">
        <ele>448</ele>
        <time>2015-11-05T08:53:12Z</time>
      </trkpt>
      <trkpt lat="44.9887" lon="4.52114">
        <ele>447</ele>
        <time>2015-11-05T08:53:17Z</time>
      </trkpt>
      <trkpt lat="44.98876" lon="4.52122">
        <ele>445</ele>
        <time>2015-11-05T08:53:21Z</time>
      </trkpt>
      <trkpt lat="44.98879" lon="4.52131">
        <ele>444</ele>
        <time>2015-11-05T08:53:26Z</time>
      </trkpt>
      <trkpt lat="44.98883" lon="4.52141">
        <ele>444</ele>
        <time>2015-11-05T08:53:31Z</time>
      </trkpt>
      <trkpt lat="44.98887" lon="4.52152">
        <ele>442</ele>
        <time>2015-11-05T08:53:37Z</time>
      </trkpt>
      <trkpt lat="44.9889" lon="4.52162">
        <ele>441</ele>
        <time>2015-11-05T08:53:43Z</time>
      </trkpt>
      <trkpt lat="44.98895" lon="4.52172">
        <ele>440</ele>
        <time>2015-11-05T08:53:50Z</time>
      </trkpt>
      <trkpt lat="44.98901" lon="4.5218">
        <ele>439</ele>
        <time>2015-11-05T08:53:57Z</time>
      </trkpt>
      <trkpt lat="44.98907" lon="4.52188">
        <ele>439</ele>
        <time>2015-11-05T08:54:08Z</time>
      </trkpt>
      <trkpt lat="44.98914" lon="4.52185">
        <ele>438</ele>
        <time>2015-11-05T08:54:14Z</time>
      </trkpt>
      <trkpt lat="44.9892" lon="4.52179">
        <ele>437</ele>
        <time>2015-11-05T08:54:19Z</time>
      </trkpt>
      <trkpt lat="44.98927" lon="4.52171">
        <ele>436</ele>
        <time>2015-11-05T08:54:26Z</time>
      </trkpt>
      <trkpt lat="44.98932" lon="4.52163">
        <ele>436</ele>
        <time>2015-11-05T08:54:32Z</time>
      </trkpt>
      <trkpt lat="44.98939" lon="4.52158">
        <ele>434</ele>
        <time>2015-11-05T08:54:38Z</time>
      </trkpt>
      <trkpt lat="44.98949" lon="4.52151">
        <ele>433</ele>
        <time>2015-11-05T08:54:42Z</time>
      </trkpt>
      <trkpt lat="44.9896" lon="4.52146">
        <ele>433</ele>
        <time>2015-11-05T08:54:46Z</time>
      </trkpt>
      <trkpt lat="44.98967" lon="4.52145">
        <ele>432</ele>
        <time>2015-11-05T08:54:49Z</time>
      </trkpt>
      <trkpt lat="44.98977" lon="4.52142">
        <ele>431</ele>
        <time>2015-11-05T08:54:53Z</time>
      </trkpt>
      <trkpt lat="44.98983" lon="4.52141">
        <ele>430</ele>
        <time>2015-11-05T08:54:56Z</time>
      </trkpt>
      <trkpt lat="44.9899" lon="4.52141">
        <ele>429</ele>
        <time>2015-11-05T08:55:00Z</time>
      </trkpt>
      <trkpt lat="44.99001" lon="4.52135">
        <ele>428</ele>
        <time>2015-11-05T08:55:05Z</time>
      </trkpt>
      <trkpt lat="44.99011" lon="4.5213">
        <ele>427</ele>
        <time>2015-11-05T08:55:10Z</time>
      </trkpt>
      <trkpt lat="44.99017" lon="4.52125">
        <ele>426</ele>
        <time>2015-11-05T08:55:15Z</time>
      </trkpt>
      <trkpt lat="44.9902" lon="4.52117">
        <ele>426</ele>
        <time>2015-11-05T08:55:21Z</time>
      </trkpt>
      <trkpt lat="44.99016" lon="4.52106">
        <ele>425</ele>
        <time>2015-11-05T08:55:26Z</time>
      </trkpt>
      <trkpt lat="44.99021" lon="4.52095">
        <ele>424</ele>
        <time>2015-11-05T08:55:31Z</time>
      </trkpt>
      <trkpt lat="44.9903" lon="4.52089">
        <ele>423</ele>
        <time>2015-11-05T08:55:35Z</time>
      </trkpt>
      <trkpt lat="44.99037" lon="4.52068">
        <ele>423</ele>
        <time>2015-11-05T08:55:38Z</time>
      </trkpt>
      <trkpt lat="44.99056" lon="4.52058">
        <ele>422</ele>
        <time>2015-11-05T08:55:43Z</time>
      </trkpt>
      <trkpt lat="44.99071" lon="4.5207">
        <ele>422</ele>
        <time>2015-11-05T08:55:48Z</time>
      </trkpt>
      <trkpt lat="44.99065" lon="4.52059">
        <ele>421</ele>
        <time>2015-11-05T08:55:52Z</time>
      </trkpt>
      <trkpt lat="44.99069" lon="4.5205">
        <ele>420</ele>
        <time>2015-11-05T08:56:01Z</time>
      </trkpt>
      <trkpt lat="44.99076" lon="4.52045">
        <ele>419</ele>
        <time>2015-11-05T08:56:08Z</time>
      </trkpt>
      <trkpt lat="44.99084" lon="4.52037">
        <ele>419</ele>
        <time>2015-11-05T08:56:13Z</time>
      </trkpt>
      <trkpt lat="44.99091" lon="4.52031">
        <ele>418</ele>
        <time>2015-11-05T08:56:20Z</time>
      </trkpt>
      <trkpt lat="44.99096" lon="4.52021">
        <ele>417</ele>
        <time>2015-11-05T08:56:30Z</time>
      </trkpt>
      <trkpt lat="44.99102" lon="4.52014">
        <ele>417</ele>
        <time>2015-11-05T08:56:35Z</time>
      </trkpt>
      <trkpt lat="44.99109" lon="4.52016">
        <ele>415</ele>
        <time>2015-11-05T08:56:46Z</time>
      </trkpt>
      <trkpt lat="44.99115" lon="4.52008">
        <ele>413</ele>
        <time>2015-11-05T08:56:50Z</time>
      </trkpt>
      <trkpt lat="44.9912" lon="4.52">
        <ele>411</ele>
        <time>2015-11-05T08:56:54Z</time>
      </trkpt>
      <trkpt lat="44.99125" lon="4.51991">
        <ele>409</ele>
        <time>2015-11-05T08:57:01Z</time>
      </trkpt>
      <trkpt lat="44.99132" lon="4.51984">
        <ele>408</ele>
        <time>2015-11-05T08:57:07Z</time>
      </trkpt>
      <trkpt lat="44.99136" lon="4.51974">
        <ele>406</ele>
        <time>2015-11-05T08:57:13Z</time>
      </trkpt>
      <trkpt lat="44.99138" lon="4.51965">
        <ele>406</ele>
        <time>2015-11-05T08:57:17Z</time>
      </trkpt>
      <trkpt lat="44.99145" lon="4.51958">
        <ele>405</ele>
        <time>2015-11-05T08:57:23Z</time>
      </trkpt>
      <trkpt lat="44.99149" lon="4.5195">
        <ele>404</ele>
        <time>2015-11-05T08:57:28Z</time>
      </trkpt>
      <trkpt lat="44.99156" lon="4.51944">
        <ele>403</ele>
        <time>2015-11-05T08:57:33Z</time>
      </trkpt>
      <trkpt lat="44.99161" lon="4.51936">
        <ele>403</ele>
        <time>2015-11-05T08:57:37Z</time>
      </trkpt>
      <trkpt lat="44.99166" lon="4.51928">
        <ele>401</ele>
        <time>2015-11-05T08:57:43Z</time>
      </trkpt>
      <trkpt lat="44.99173" lon="4.51927">
        <ele>399</ele>
        <time>2015-11-05T08:57:52Z</time>
      </trkpt>
      <trkpt lat="44.9918" lon="4.51921">
        <ele>398</ele>
        <time>2015-11-05T08:57:57Z</time>
      </trkpt>
      <trkpt lat="44.99185" lon="4.51913">
        <ele>397</ele>
        <time>2015-11-05T08:58:01Z</time>
      </trkpt>
      <trkpt lat="44.9919" lon="4.51904">
        <ele>394</ele>
        <time>2015-11-05T08:58:12Z</time>
      </trkpt>
      <trkpt lat="44.99195" lon="4.51898">
        <ele>392</ele>
        <time>2015-11-05T08:58:17Z</time>
      </trkpt>
      <trkpt lat="44.99201" lon="4.5189">
        <ele>391</ele>
        <time>2015-11-05T08:58:24Z</time>
      </trkpt>
      <trkpt lat="44.99207" lon="4.51882">
        <ele>389</ele>
        <time>2015-11-05T08:58:34Z</time>
      </trkpt>
      <trkpt lat="44.99211" lon="4.51879">
        <ele>388</ele>
        <time>2015-11-05T08:58:40Z</time>
      </trkpt>
      <trkpt lat="44.99226" lon="4.51881">
        <ele>387</ele>
        <time>2015-11-05T08:58:45Z</time>
      </trkpt>
      <trkpt lat="44.99234" lon="4.51884">
        <ele>386</ele>
        <time>2015-11-05T08:58:51Z</time>
      </trkpt>
      <trkpt lat="44.99241" lon="4.51892">
        <ele>385</ele>
        <time>2015-11-05T08:58:59Z</time>
      </trkpt>
      <trkpt lat="44.99249" lon="4.51898">
        <ele>383</ele>
        <time>2015-11-05T08:59:14Z</time>
      </trkpt>
      <trkpt lat="44.99251" lon="4.51898">
        <ele>383</ele>
        <time>2015-11-05T08:59:18Z</time>
      </trkpt>
      <trkpt lat="44.99258" lon="4.51915">
        <ele>382</ele>
        <time>2015-11-05T08:59:22Z</time>
      </trkpt>
      <trkpt lat="44.99264" lon="4.51922">
        <ele>381</ele>
        <time>2015-11-05T08:59:28Z</time>
      </trkpt>
      <trkpt lat="44.99272" lon="4.51926">
        <ele>381</ele>
        <time>2015-11-05T08:59:33Z</time>
      </trkpt>
      <trkpt lat="44.99279" lon="4.51931">
        <ele>380</ele>
        <time>2015-11-05T08:59:38Z</time>
      </trkpt>
      <trkpt lat="44.99285" lon="4.51934">
        <ele>380</ele>
        <time>2015-11-05T08:59:44Z</time>
      </trkpt>
      <trkpt lat="44.99293" lon="4.51936">
        <ele>379</ele>
        <time>2015-11-05T08:59:48Z</time>
      </trkpt>
      <trkpt lat="44.99297" lon="4.51943">
        <ele>376</ele>
        <time>2015-11-05T08:59:59Z</time>
      </trkpt>
      <trkpt lat="44.99304" lon="4.51948">
        <ele>376</ele>
        <time>2015-11-05T09:00:04Z</time>
      </trkpt>
      <trkpt lat="44.99308" lon="4.51938">
        <ele>378</ele>
        <time>2015-11-05T09:00:17Z</time>
      </trkpt>
      <trkpt lat="44.99314" lon="4.51931">
        <ele>379</ele>
        <time>2015-11-05T09:00:22Z</time>
      </trkpt>
      <trkpt lat="44.99316" lon="4.51918">
        <ele>382</ele>
        <time>2015-11-05T09:00:26Z</time>
      </trkpt>
      <trkpt lat="44.99322" lon="4.51911">
        <ele>384</ele>
        <time>2015-11-05T09:00:31Z</time>
      </trkpt>
      <trkpt lat="44.99323" lon="4.51898">
        <ele>387</ele>
        <time>2015-11-05T09:00:37Z</time>
      </trkpt>
      <trkpt lat="44.99323" lon="4.51888">
        <ele>389</ele>
        <time>2015-11-05T09:00:45Z</time>
      </trkpt>
      <trkpt lat="44.99323" lon="4.51877">
        <ele>393</ele>
        <time>2015-11-05T09:00:50Z</time>
      </trkpt>
      <trkpt lat="44.99322" lon="4.51866">
        <ele>396</ele>
        <time>2015-11-05T09:00:55Z</time>
      </trkpt>
      <trkpt lat="44.99321" lon="4.51855">
        <ele>399</ele>
        <time>2015-11-05T09:01:01Z</time>
      </trkpt>
      <trkpt lat="44.99322" lon="4.51842">
        <ele>402</ele>
        <time>2015-11-05T09:01:08Z</time>
      </trkpt>
      <trkpt lat="44.99321" lon="4.51832">
        <ele>405</ele>
        <time>2015-11-05T09:01:12Z</time>
      </trkpt>
      <trkpt lat="44.99321" lon="4.5182">
        <ele>406</ele>
        <time>2015-11-05T09:01:18Z</time>
      </trkpt>
      <trkpt lat="44.99321" lon="4.5181">
        <ele>407</ele>
        <time>2015-11-05T09:01:24Z</time>
      </trkpt>
      <trkpt lat="44.99319" lon="4.51799">
        <ele>407</ele>
        <time>2015-11-05T09:01:31Z</time>
      </trkpt>
      <trkpt lat="44.99317" lon="4.51788">
        <ele>407</ele>
        <time>2015-11-05T09:01:36Z</time>
      </trkpt>
      <trkpt lat="44.99315" lon="4.51777">
        <ele>409</ele>
        <time>2015-11-05T09:01:44Z</time>
      </trkpt>
      <trkpt lat="44.99315" lon="4.51766">
        <ele>411</ele>
        <time>2015-11-05T09:01:52Z</time>
      </trkpt>
      <trkpt lat="44.99315" lon="4.51755">
        <ele>413</ele>
        <time>2015-11-05T09:01:58Z</time>
      </trkpt>
      <trkpt lat="44.99318" lon="4.51744">
        <ele>413</ele>
        <time>2015-11-05T09:02:05Z</time>
      </trkpt>
      <trkpt lat="44.99318" lon="4.51733">
        <ele>414</ele>
        <time>2015-11-05T09:02:11Z</time>
      </trkpt>
      <trkpt lat="44.99319" lon="4.51721">
        <ele>414</ele>
        <time>2015-11-05T09:02:20Z</time>
      </trkpt>
      <trkpt lat="44.99321" lon="4.51712">
        <ele>414</ele>
        <time>2015-11-05T09:02:26Z</time>
      </trkpt>
      <trkpt lat="44.99325" lon="4.517">
        <ele>414</ele>
        <time>2015-11-05T09:02:31Z</time>
      </trkpt>
      <trkpt lat="44.99328" lon="4.51694">
        <ele>413</ele>
        <time>2015-11-05T09:02:35Z</time>
      </trkpt>
      <trkpt lat="44.99346" lon="4.51684">
        <ele>410</ele>
        <time>2015-11-05T09:02:52Z</time>
      </trkpt>
      <trkpt lat="44.99348" lon="4.51683">
        <ele>407</ele>
        <time>2015-11-05T09:02:59Z</time>
      </trkpt>
      <trkpt lat="44.99348" lon="4.51683">
        <ele>407</ele>
        <time>2015-11-05T09:03:00Z</time>
      </trkpt>
    </trkseg>
  </trk>
</gpx>